<?xml version="1.0" encoding="UTF-8" standalone="no" ?>
<gpx xmlns="http://www.topografix.com/GPX/1/1" xmlns:xsi="http://www.w3.org/2001/XMLSchema-instance" xsi:schemaLocation="http://www.topografix.com/GPX/1/1 http://www.topografix.com/GPX/1/1/gpx.xsd" version="1.1" creator="VisuGPX - https://www.visugpx.com">
  <metadata>
    <name>Road trip fait P/E</name>
  </metadata>
  <trk>
    <name><![CDATA[Road trip fait P/E_16]]></name>
    <extensions>
      <line xmlns="http://www.topografix.com/GPX/gpx_style/0/2">
        <color>008888</color>
        <width>4</width>
      </line>
    </extensions>
    <trkseg>
      <trkpt lat="42.36619" lon="0.85651">
        <ele>1132.207</ele>
        <time>2021-07-22T15:20:41Z</time>
      </trkpt>
      <trkpt lat="42.36619" lon="0.85651">
        <ele>1132.207</ele>
        <time>2021-07-22T15:20:41Z</time>
      </trkpt>
      <trkpt lat="42.3655" lon="0.85488">
        <ele>1147.776</ele>
        <time>2021-07-22T15:20:52Z</time>
      </trkpt>
      <trkpt lat="42.36412" lon="0.85267">
        <ele>1159.375</ele>
        <time>2021-07-22T15:21:03Z</time>
      </trkpt>
      <trkpt lat="42.36318" lon="0.85027">
        <ele>1176.751</ele>
        <time>2021-07-22T15:21:14Z</time>
      </trkpt>
      <trkpt lat="42.36251" lon="0.85135">
        <ele>1178.163</ele>
        <time>2021-07-22T15:21:25Z</time>
      </trkpt>
      <trkpt lat="42.36241" lon="0.85">
        <ele>1189.242</ele>
        <time>2021-07-22T15:21:36Z</time>
      </trkpt>
      <trkpt lat="42.36321" lon="0.84931">
        <ele>1196.117</ele>
        <time>2021-07-22T15:21:47Z</time>
      </trkpt>
      <trkpt lat="42.36504" lon="0.85179">
        <ele>1205.843</ele>
        <time>2021-07-22T15:21:58Z</time>
      </trkpt>
      <trkpt lat="42.36602" lon="0.85264">
        <ele>1212.447</ele>
        <time>2021-07-22T15:22:09Z</time>
      </trkpt>
      <trkpt lat="42.36497" lon="0.85033">
        <ele>1224.314</ele>
        <time>2021-07-22T15:22:20Z</time>
      </trkpt>
      <trkpt lat="42.36487" lon="0.84831">
        <ele>1238.075</ele>
        <time>2021-07-22T15:22:31Z</time>
      </trkpt>
      <trkpt lat="42.36439" lon="0.84851">
        <ele>1245.28</ele>
        <time>2021-07-22T15:22:42Z</time>
      </trkpt>
      <trkpt lat="42.36504" lon="0.84764">
        <ele>1250.84</ele>
        <time>2021-07-22T15:22:53Z</time>
      </trkpt>
      <trkpt lat="42.36439" lon="0.8473">
        <ele>1260.037</ele>
        <time>2021-07-22T15:23:04Z</time>
      </trkpt>
      <trkpt lat="42.36317" lon="0.84655">
        <ele>1269.667</ele>
        <time>2021-07-22T15:23:15Z</time>
      </trkpt>
      <trkpt lat="42.36219" lon="0.84544">
        <ele>1281.333</ele>
        <time>2021-07-22T15:23:26Z</time>
      </trkpt>
      <trkpt lat="42.3614" lon="0.84248">
        <ele>1301.346</ele>
        <time>2021-07-22T15:23:37Z</time>
      </trkpt>
      <trkpt lat="42.35975" lon="0.84187">
        <ele>1319.549</ele>
        <time>2021-07-22T15:23:48Z</time>
      </trkpt>
      <trkpt lat="42.35786" lon="0.84219">
        <ele>1333.798</ele>
        <time>2021-07-22T15:23:59Z</time>
      </trkpt>
      <trkpt lat="42.35717" lon="0.8396">
        <ele>1318.31</ele>
        <time>2021-07-22T15:24:10Z</time>
      </trkpt>
      <trkpt lat="42.35765" lon="0.8368">
        <ele>1300.614</ele>
        <time>2021-07-22T15:24:21Z</time>
      </trkpt>
      <trkpt lat="42.35708" lon="0.83498">
        <ele>1288.799</ele>
        <time>2021-07-22T15:24:32Z</time>
      </trkpt>
      <trkpt lat="42.35708" lon="0.83276">
        <ele>1276.146</ele>
        <time>2021-07-22T15:24:43Z</time>
      </trkpt>
      <trkpt lat="42.35527" lon="0.83173">
        <ele>1257.667</ele>
        <time>2021-07-22T15:24:54Z</time>
      </trkpt>
      <trkpt lat="42.35364" lon="0.83046">
        <ele>1242.489</ele>
        <time>2021-07-22T15:25:05Z</time>
      </trkpt>
      <trkpt lat="42.35312" lon="0.82795">
        <ele>1221.733</ele>
        <time>2021-07-22T15:25:16Z</time>
      </trkpt>
      <trkpt lat="42.35468" lon="0.82509">
        <ele>1202.298</ele>
        <time>2021-07-22T15:25:27Z</time>
      </trkpt>
      <trkpt lat="42.35685" lon="0.82376">
        <ele>1182.77</ele>
        <time>2021-07-22T15:25:38Z</time>
      </trkpt>
      <trkpt lat="42.35816" lon="0.82302">
        <ele>1175.935</ele>
        <time>2021-07-22T15:25:49Z</time>
      </trkpt>
      <trkpt lat="42.35791" lon="0.82085">
        <ele>1184.769</ele>
        <time>2021-07-22T15:26:00Z</time>
      </trkpt>
      <trkpt lat="42.35904" lon="0.81878">
        <ele>1193.404</ele>
        <time>2021-07-22T15:26:11Z</time>
      </trkpt>
      <trkpt lat="42.36116" lon="0.81759">
        <ele>1189.347</ele>
        <time>2021-07-22T15:26:22Z</time>
      </trkpt>
      <trkpt lat="42.36306" lon="0.81649">
        <ele>1185.826</ele>
        <time>2021-07-22T15:26:33Z</time>
      </trkpt>
      <trkpt lat="42.36363" lon="0.8144">
        <ele>1189.636</ele>
        <time>2021-07-22T15:26:44Z</time>
      </trkpt>
      <trkpt lat="42.3649" lon="0.81266">
        <ele>1195.943</ele>
        <time>2021-07-22T15:26:55Z</time>
      </trkpt>
      <trkpt lat="42.36652" lon="0.81104">
        <ele>1206.964</ele>
        <time>2021-07-22T15:27:06Z</time>
      </trkpt>
      <trkpt lat="42.36751" lon="0.81026">
        <ele>1213.377</ele>
        <time>2021-07-22T15:27:17Z</time>
      </trkpt>
      <trkpt lat="42.36966" lon="0.80998">
        <ele>1227.258</ele>
        <time>2021-07-22T15:27:28Z</time>
      </trkpt>
      <trkpt lat="42.37092" lon="0.80893">
        <ele>1220.475</ele>
        <time>2021-07-22T15:27:39Z</time>
      </trkpt>
      <trkpt lat="42.37138" lon="0.80692">
        <ele>1208.135</ele>
        <time>2021-07-22T15:27:50Z</time>
      </trkpt>
      <trkpt lat="42.37242" lon="0.80535">
        <ele>1197.315</ele>
        <time>2021-07-22T15:28:01Z</time>
      </trkpt>
      <trkpt lat="42.37359" lon="0.80362">
        <ele>1185.847</ele>
        <time>2021-07-22T15:28:12Z</time>
      </trkpt>
      <trkpt lat="42.37344" lon="0.80082">
        <ele>1172.089</ele>
        <time>2021-07-22T15:28:23Z</time>
      </trkpt>
      <trkpt lat="42.37346" lon="0.79944">
        <ele>1163.167</ele>
        <time>2021-07-22T15:28:34Z</time>
      </trkpt>
      <trkpt lat="42.37469" lon="0.79747">
        <ele>1153.336</ele>
        <time>2021-07-22T15:28:45Z</time>
      </trkpt>
      <trkpt lat="42.37618" lon="0.79453">
        <ele>1133.263</ele>
        <time>2021-07-22T15:28:56Z</time>
      </trkpt>
      <trkpt lat="42.37717" lon="0.79273">
        <ele>1117.593</ele>
        <time>2021-07-22T15:29:07Z</time>
      </trkpt>
      <trkpt lat="42.37804" lon="0.79325">
        <ele>1104.666</ele>
        <time>2021-07-22T15:29:18Z</time>
      </trkpt>
      <trkpt lat="42.3789" lon="0.79367">
        <ele>1092.458</ele>
        <time>2021-07-22T15:29:29Z</time>
      </trkpt>
      <trkpt lat="42.38002" lon="0.79223">
        <ele>1083.444</ele>
        <time>2021-07-22T15:29:40Z</time>
      </trkpt>
      <trkpt lat="42.38167" lon="0.79123">
        <ele>1066.824</ele>
        <time>2021-07-22T15:29:51Z</time>
      </trkpt>
      <trkpt lat="42.38327" lon="0.79023">
        <ele>1054.361</ele>
        <time>2021-07-22T15:30:02Z</time>
      </trkpt>
      <trkpt lat="42.3841" lon="0.78989">
        <ele>1045.057</ele>
        <time>2021-07-22T15:30:13Z</time>
      </trkpt>
      <trkpt lat="42.38558" lon="0.78891">
        <ele>1029.592</ele>
        <time>2021-07-22T15:30:24Z</time>
      </trkpt>
      <trkpt lat="42.38736" lon="0.78754">
        <ele>1015.648</ele>
        <time>2021-07-22T15:30:35Z</time>
      </trkpt>
      <trkpt lat="42.38875" lon="0.78694">
        <ele>1005.617</ele>
        <time>2021-07-22T15:30:46Z</time>
      </trkpt>
      <trkpt lat="42.38711" lon="0.78843">
        <ele>988.8548</ele>
        <time>2021-07-22T15:30:57Z</time>
      </trkpt>
      <trkpt lat="42.38702" lon="0.78906">
        <ele>978.1707</ele>
        <time>2021-07-22T15:31:08Z</time>
      </trkpt>
      <trkpt lat="42.38872" lon="0.78841">
        <ele>962.6638</ele>
        <time>2021-07-22T15:31:19Z</time>
      </trkpt>
      <trkpt lat="42.39023" lon="0.78768">
        <ele>946.0699</ele>
        <time>2021-07-22T15:31:30Z</time>
      </trkpt>
      <trkpt lat="42.39123" lon="0.78691">
        <ele>939.4955</ele>
        <time>2021-07-22T15:31:41Z</time>
      </trkpt>
      <trkpt lat="42.39222" lon="0.78557">
        <ele>931.1022</ele>
        <time>2021-07-22T15:31:52Z</time>
      </trkpt>
      <trkpt lat="42.39372" lon="0.78546">
        <ele>925.7915</ele>
        <time>2021-07-22T15:32:03Z</time>
      </trkpt>
      <trkpt lat="42.3941" lon="0.78382">
        <ele>919.3443</ele>
        <time>2021-07-22T15:32:14Z</time>
      </trkpt>
      <trkpt lat="42.39469" lon="0.78207">
        <ele>917.1193</ele>
        <time>2021-07-22T15:32:25Z</time>
      </trkpt>
      <trkpt lat="42.39455" lon="0.77953">
        <ele>914.667</ele>
        <time>2021-07-22T15:32:36Z</time>
      </trkpt>
      <trkpt lat="42.39494" lon="0.77693">
        <ele>911.6059</ele>
        <time>2021-07-22T15:32:47Z</time>
      </trkpt>
      <trkpt lat="42.39434" lon="0.77481">
        <ele>899.4694</ele>
        <time>2021-07-22T15:32:58Z</time>
      </trkpt>
      <trkpt lat="42.39443" lon="0.77215">
        <ele>901.8822</ele>
        <time>2021-07-22T15:33:09Z</time>
      </trkpt>
      <trkpt lat="42.39385" lon="0.76992">
        <ele>890.1013</ele>
        <time>2021-07-22T15:33:20Z</time>
      </trkpt>
      <trkpt lat="42.39392" lon="0.76781">
        <ele>882.1003</ele>
        <time>2021-07-22T15:33:31Z</time>
      </trkpt>
      <trkpt lat="42.39368" lon="0.76568">
        <ele>879.2105</ele>
        <time>2021-07-22T15:33:42Z</time>
      </trkpt>
      <trkpt lat="42.39457" lon="0.7634">
        <ele>867.2985</ele>
        <time>2021-07-22T15:33:53Z</time>
      </trkpt>
      <trkpt lat="42.39377" lon="0.76114">
        <ele>852.0804</ele>
        <time>2021-07-22T15:34:04Z</time>
      </trkpt>
      <trkpt lat="42.39288" lon="0.75844">
        <ele>850.3899</ele>
        <time>2021-07-22T15:34:15Z</time>
      </trkpt>
      <trkpt lat="42.39156" lon="0.75636">
        <ele>842.6755</ele>
        <time>2021-07-22T15:34:26Z</time>
      </trkpt>
      <trkpt lat="42.38994" lon="0.75624">
        <ele>836.6719</ele>
        <time>2021-07-22T15:34:37Z</time>
      </trkpt>
      <trkpt lat="42.39062" lon="0.75441">
        <ele>829.973</ele>
        <time>2021-07-22T15:34:48Z</time>
      </trkpt>
      <trkpt lat="42.38992" lon="0.75255">
        <ele>823.4346</ele>
        <time>2021-07-22T15:34:59Z</time>
      </trkpt>
      <trkpt lat="42.38985" lon="0.75065">
        <ele>825.8769</ele>
        <time>2021-07-22T15:35:10Z</time>
      </trkpt>
      <trkpt lat="42.38946" lon="0.74909">
        <ele>828.4181</ele>
        <time>2021-07-22T15:35:21Z</time>
      </trkpt>
      <trkpt lat="42.38907" lon="0.74753">
        <ele>828.6516</ele>
        <time>2021-07-22T15:35:32Z</time>
      </trkpt>
      <trkpt lat="42.3895" lon="0.74592">
        <ele>833.6355</ele>
        <time>2021-07-22T15:35:43Z</time>
      </trkpt>
      <trkpt lat="42.39091" lon="0.74587">
        <ele>837.2277</ele>
        <time>2021-07-22T15:35:54Z</time>
      </trkpt>
      <trkpt lat="42.39223" lon="0.74669">
        <ele>827.9848</ele>
        <time>2021-07-22T15:36:05Z</time>
      </trkpt>
      <trkpt lat="42.3948" lon="0.74685">
        <ele>830.9218</ele>
        <time>2021-07-22T15:36:16Z</time>
      </trkpt>
      <trkpt lat="42.39717" lon="0.74494">
        <ele>831.8795</ele>
        <time>2021-07-22T15:36:27Z</time>
      </trkpt>
      <trkpt lat="42.39909" lon="0.7434">
        <ele>823.6513</ele>
        <time>2021-07-22T15:36:38Z</time>
      </trkpt>
      <trkpt lat="42.40091" lon="0.74272">
        <ele>831.1469</ele>
        <time>2021-07-22T15:36:49Z</time>
      </trkpt>
      <trkpt lat="42.40163" lon="0.74234">
        <ele>832.9979</ele>
        <time>2021-07-22T15:37:00Z</time>
      </trkpt>
      <trkpt lat="42.40274" lon="0.74231">
        <ele>839.7938</ele>
        <time>2021-07-22T15:37:11Z</time>
      </trkpt>
      <trkpt lat="42.40375" lon="0.74222">
        <ele>842.4722</ele>
        <time>2021-07-22T15:37:22Z</time>
      </trkpt>
      <trkpt lat="42.40508" lon="0.74245">
        <ele>844.9</ele>
        <time>2021-07-22T15:37:33Z</time>
      </trkpt>
      <trkpt lat="42.40616" lon="0.74231">
        <ele>848.3841</ele>
        <time>2021-07-22T15:37:44Z</time>
      </trkpt>
      <trkpt lat="42.40722" lon="0.74275">
        <ele>852.5375</ele>
        <time>2021-07-22T15:37:55Z</time>
      </trkpt>
      <trkpt lat="42.408" lon="0.7423">
        <ele>853.4057</ele>
        <time>2021-07-22T15:38:06Z</time>
      </trkpt>
      <trkpt lat="42.40866" lon="0.74162">
        <ele>862.336</ele>
        <time>2021-07-22T15:38:17Z</time>
      </trkpt>
      <trkpt lat="42.40939" lon="0.74089">
        <ele>862.1154</ele>
        <time>2021-07-22T15:38:28Z</time>
      </trkpt>
      <trkpt lat="42.41038" lon="0.74046">
        <ele>862.9609</ele>
        <time>2021-07-22T15:38:39Z</time>
      </trkpt>
      <trkpt lat="42.41136" lon="0.74026">
        <ele>863.5192</ele>
        <time>2021-07-22T15:38:50Z</time>
      </trkpt>
      <trkpt lat="42.41259" lon="0.74001">
        <ele>865.1153</ele>
        <time>2021-07-22T15:39:01Z</time>
      </trkpt>
      <trkpt lat="42.41318" lon="0.73854">
        <ele>862.3039</ele>
        <time>2021-07-22T15:39:12Z</time>
      </trkpt>
      <trkpt lat="42.41472" lon="0.7376">
        <ele>864.9687</ele>
        <time>2021-07-22T15:39:23Z</time>
      </trkpt>
      <trkpt lat="42.41625" lon="0.73654">
        <ele>865.6479</ele>
        <time>2021-07-22T15:39:34Z</time>
      </trkpt>
      <trkpt lat="42.41792" lon="0.73562">
        <ele>859.8777</ele>
        <time>2021-07-22T15:39:45Z</time>
      </trkpt>
      <trkpt lat="42.41981" lon="0.73528">
        <ele>854.4958</ele>
        <time>2021-07-22T15:39:56Z</time>
      </trkpt>
      <trkpt lat="42.4225" lon="0.73374">
        <ele>857.2899</ele>
        <time>2021-07-22T15:40:07Z</time>
      </trkpt>
      <trkpt lat="42.42516" lon="0.73234">
        <ele>864.7383</ele>
        <time>2021-07-22T15:40:18Z</time>
      </trkpt>
      <trkpt lat="42.42681" lon="0.73002">
        <ele>866.2717</ele>
        <time>2021-07-22T15:40:29Z</time>
      </trkpt>
      <trkpt lat="42.42799" lon="0.72649">
        <ele>868.7248</ele>
        <time>2021-07-22T15:40:40Z</time>
      </trkpt>
      <trkpt lat="42.42996" lon="0.72453">
        <ele>873.5864</ele>
        <time>2021-07-22T15:40:51Z</time>
      </trkpt>
      <trkpt lat="42.4311" lon="0.72162">
        <ele>884.7466</ele>
        <time>2021-07-22T15:41:02Z</time>
      </trkpt>
      <trkpt lat="42.43265" lon="0.71788">
        <ele>886.788</ele>
        <time>2021-07-22T15:41:13Z</time>
      </trkpt>
      <trkpt lat="42.43401" lon="0.71492">
        <ele>887.3659</ele>
        <time>2021-07-22T15:41:24Z</time>
      </trkpt>
      <trkpt lat="42.43665" lon="0.71382">
        <ele>901.4751</ele>
        <time>2021-07-22T15:41:35Z</time>
      </trkpt>
      <trkpt lat="42.43895" lon="0.71274">
        <ele>903.5218</ele>
        <time>2021-07-22T15:41:46Z</time>
      </trkpt>
      <trkpt lat="42.44098" lon="0.71201">
        <ele>908.7437</ele>
        <time>2021-07-22T15:41:57Z</time>
      </trkpt>
      <trkpt lat="42.44309" lon="0.71128">
        <ele>911.0709</ele>
        <time>2021-07-22T15:42:08Z</time>
      </trkpt>
      <trkpt lat="42.44488" lon="0.71031">
        <ele>917.8803</ele>
        <time>2021-07-22T15:42:19Z</time>
      </trkpt>
      <trkpt lat="42.44659" lon="0.71008">
        <ele>923.3085</ele>
        <time>2021-07-22T15:42:30Z</time>
      </trkpt>
      <trkpt lat="42.44832" lon="0.71021">
        <ele>930.049</ele>
        <time>2021-07-22T15:42:41Z</time>
      </trkpt>
      <trkpt lat="42.44996" lon="0.70989">
        <ele>937.4478</ele>
        <time>2021-07-22T15:42:52Z</time>
      </trkpt>
      <trkpt lat="42.45143" lon="0.70947">
        <ele>939.3777</ele>
        <time>2021-07-22T15:43:04Z</time>
      </trkpt>
      <trkpt lat="42.4539" lon="0.70897">
        <ele>939.3126</ele>
        <time>2021-07-22T15:43:15Z</time>
      </trkpt>
      <trkpt lat="42.45593" lon="0.70847">
        <ele>939.1098</ele>
        <time>2021-07-22T15:43:26Z</time>
      </trkpt>
      <trkpt lat="42.45796" lon="0.70913">
        <ele>944.1987</ele>
        <time>2021-07-22T15:43:37Z</time>
      </trkpt>
      <trkpt lat="42.45991" lon="0.71072">
        <ele>947.5765</ele>
        <time>2021-07-22T15:43:48Z</time>
      </trkpt>
      <trkpt lat="42.4619" lon="0.71173">
        <ele>959.4164</ele>
        <time>2021-07-22T15:43:59Z</time>
      </trkpt>
      <trkpt lat="42.46414" lon="0.71326">
        <ele>972.3621</ele>
        <time>2021-07-22T15:44:10Z</time>
      </trkpt>
      <trkpt lat="42.46652" lon="0.71412">
        <ele>991.3911</ele>
        <time>2021-07-22T15:44:21Z</time>
      </trkpt>
      <trkpt lat="42.46899" lon="0.71512">
        <ele>996.9158</ele>
        <time>2021-07-22T15:44:32Z</time>
      </trkpt>
      <trkpt lat="42.47164" lon="0.71589">
        <ele>983.7087</ele>
        <time>2021-07-22T15:44:43Z</time>
      </trkpt>
      <trkpt lat="42.47373" lon="0.71625">
        <ele>975.3736</ele>
        <time>2021-07-22T15:44:54Z</time>
      </trkpt>
      <trkpt lat="42.47517" lon="0.71685">
        <ele>978.8952</ele>
        <time>2021-07-22T15:45:05Z</time>
      </trkpt>
      <trkpt lat="42.47676" lon="0.71765">
        <ele>991.2564</ele>
        <time>2021-07-22T15:45:16Z</time>
      </trkpt>
      <trkpt lat="42.47818" lon="0.71851">
        <ele>994.4101</ele>
        <time>2021-07-22T15:45:27Z</time>
      </trkpt>
      <trkpt lat="42.48018" lon="0.7188">
        <ele>998.4283</ele>
        <time>2021-07-22T15:45:38Z</time>
      </trkpt>
      <trkpt lat="42.48292" lon="0.71898">
        <ele>994.0933</ele>
        <time>2021-07-22T15:45:49Z</time>
      </trkpt>
      <trkpt lat="42.48546" lon="0.71807">
        <ele>999.4909</ele>
        <time>2021-07-22T15:46:00Z</time>
      </trkpt>
      <trkpt lat="42.48793" lon="0.71839">
        <ele>1003.011</ele>
        <time>2021-07-22T15:46:11Z</time>
      </trkpt>
      <trkpt lat="42.49039" lon="0.7184">
        <ele>1004.225</ele>
        <time>2021-07-22T15:46:22Z</time>
      </trkpt>
      <trkpt lat="42.49283" lon="0.71829">
        <ele>1007.801</ele>
        <time>2021-07-22T15:46:33Z</time>
      </trkpt>
      <trkpt lat="42.49523" lon="0.71782">
        <ele>1005.234</ele>
        <time>2021-07-22T15:46:44Z</time>
      </trkpt>
      <trkpt lat="42.49759" lon="0.71766">
        <ele>1005.691</ele>
        <time>2021-07-22T15:46:55Z</time>
      </trkpt>
      <trkpt lat="42.49979" lon="0.71726">
        <ele>1004.71</ele>
        <time>2021-07-22T15:47:06Z</time>
      </trkpt>
      <trkpt lat="42.50219" lon="0.71659">
        <ele>1001.459</ele>
        <time>2021-07-22T15:47:17Z</time>
      </trkpt>
      <trkpt lat="42.50419" lon="0.71563">
        <ele>1008.568</ele>
        <time>2021-07-22T15:47:28Z</time>
      </trkpt>
      <trkpt lat="42.50569" lon="0.71747">
        <ele>1008.739</ele>
        <time>2021-07-22T15:47:39Z</time>
      </trkpt>
      <trkpt lat="42.50838" lon="0.71842">
        <ele>1020.786</ele>
        <time>2021-07-22T15:47:50Z</time>
      </trkpt>
      <trkpt lat="42.5108" lon="0.71832">
        <ele>1034.391</ele>
        <time>2021-07-22T15:48:01Z</time>
      </trkpt>
      <trkpt lat="42.51294" lon="0.71938">
        <ele>1022.201</ele>
        <time>2021-07-22T15:48:12Z</time>
      </trkpt>
      <trkpt lat="42.51537" lon="0.72003">
        <ele>1027.825</ele>
        <time>2021-07-22T15:48:23Z</time>
      </trkpt>
      <trkpt lat="42.5173" lon="0.72193">
        <ele>1032.83</ele>
        <time>2021-07-22T15:48:34Z</time>
      </trkpt>
      <trkpt lat="42.51932" lon="0.72295">
        <ele>1039.704</ele>
        <time>2021-07-22T15:48:45Z</time>
      </trkpt>
      <trkpt lat="42.52131" lon="0.7222">
        <ele>1043.897</ele>
        <time>2021-07-22T15:48:56Z</time>
      </trkpt>
      <trkpt lat="42.523" lon="0.72128">
        <ele>1041.575</ele>
        <time>2021-07-22T15:49:07Z</time>
      </trkpt>
      <trkpt lat="42.52462" lon="0.72037">
        <ele>1041.038</ele>
        <time>2021-07-22T15:49:18Z</time>
      </trkpt>
      <trkpt lat="42.5263" lon="0.72029">
        <ele>1042.301</ele>
        <time>2021-07-22T15:49:29Z</time>
      </trkpt>
      <trkpt lat="42.52804" lon="0.72104">
        <ele>1044.567</ele>
        <time>2021-07-22T15:49:40Z</time>
      </trkpt>
      <trkpt lat="42.5311" lon="0.72233">
        <ele>1048.272</ele>
        <time>2021-07-22T15:49:51Z</time>
      </trkpt>
      <trkpt lat="42.53316" lon="0.72322">
        <ele>1052.069</ele>
        <time>2021-07-22T15:50:02Z</time>
      </trkpt>
      <trkpt lat="42.53417" lon="0.72453">
        <ele>1057.172</ele>
        <time>2021-07-22T15:50:13Z</time>
      </trkpt>
      <trkpt lat="42.53519" lon="0.7257">
        <ele>1067.252</ele>
        <time>2021-07-22T15:50:24Z</time>
      </trkpt>
      <trkpt lat="42.53652" lon="0.72593">
        <ele>1076.973</ele>
        <time>2021-07-22T15:50:35Z</time>
      </trkpt>
      <trkpt lat="42.53746" lon="0.72726">
        <ele>1088.357</ele>
        <time>2021-07-22T15:50:46Z</time>
      </trkpt>
      <trkpt lat="42.53886" lon="0.72757">
        <ele>1097.251</ele>
        <time>2021-07-22T15:50:57Z</time>
      </trkpt>
      <trkpt lat="42.54013" lon="0.72837">
        <ele>1108.182</ele>
        <time>2021-07-22T15:51:08Z</time>
      </trkpt>
      <trkpt lat="42.54158" lon="0.72929">
        <ele>1119.623</ele>
        <time>2021-07-22T15:51:19Z</time>
      </trkpt>
      <trkpt lat="42.5432" lon="0.72986">
        <ele>1132.621</ele>
        <time>2021-07-22T15:51:30Z</time>
      </trkpt>
      <trkpt lat="42.54461" lon="0.73079">
        <ele>1143.346</ele>
        <time>2021-07-22T15:51:41Z</time>
      </trkpt>
      <trkpt lat="42.54585" lon="0.73303">
        <ele>1156.682</ele>
        <time>2021-07-22T15:51:52Z</time>
      </trkpt>
      <trkpt lat="42.54647" lon="0.7367">
        <ele>1176.484</ele>
        <time>2021-07-22T15:52:03Z</time>
      </trkpt>
      <trkpt lat="42.54642" lon="0.73989">
        <ele>1194.856</ele>
        <time>2021-07-22T15:52:14Z</time>
      </trkpt>
      <trkpt lat="42.54702" lon="0.74172">
        <ele>1203.92</ele>
        <time>2021-07-22T15:52:26Z</time>
      </trkpt>
      <trkpt lat="42.54832" lon="0.74189">
        <ele>1207.619</ele>
        <time>2021-07-22T15:52:37Z</time>
      </trkpt>
      <trkpt lat="42.54887" lon="0.74316">
        <ele>1215.384</ele>
        <time>2021-07-22T15:52:48Z</time>
      </trkpt>
      <trkpt lat="42.54949" lon="0.74444">
        <ele>1223.696</ele>
        <time>2021-07-22T15:52:59Z</time>
      </trkpt>
      <trkpt lat="42.55042" lon="0.74545">
        <ele>1230.547</ele>
        <time>2021-07-22T15:53:10Z</time>
      </trkpt>
      <trkpt lat="42.55103" lon="0.74681">
        <ele>1235.598</ele>
        <time>2021-07-22T15:53:21Z</time>
      </trkpt>
      <trkpt lat="42.55203" lon="0.74782">
        <ele>1246.323</ele>
        <time>2021-07-22T15:53:32Z</time>
      </trkpt>
      <trkpt lat="42.55304" lon="0.74876">
        <ele>1252.518</ele>
        <time>2021-07-22T15:53:43Z</time>
      </trkpt>
      <trkpt lat="42.55424" lon="0.74825">
        <ele>1260.555</ele>
        <time>2021-07-22T15:53:54Z</time>
      </trkpt>
      <trkpt lat="42.5555" lon="0.74773">
        <ele>1268.741</ele>
        <time>2021-07-22T15:54:05Z</time>
      </trkpt>
      <trkpt lat="42.5568" lon="0.74766">
        <ele>1278.128</ele>
        <time>2021-07-22T15:54:16Z</time>
      </trkpt>
      <trkpt lat="42.55815" lon="0.74761">
        <ele>1286.531</ele>
        <time>2021-07-22T15:54:27Z</time>
      </trkpt>
      <trkpt lat="42.55937" lon="0.74844">
        <ele>1293.969</ele>
        <time>2021-07-22T15:54:38Z</time>
      </trkpt>
      <trkpt lat="42.56065" lon="0.74913">
        <ele>1305.738</ele>
        <time>2021-07-22T15:54:49Z</time>
      </trkpt>
      <trkpt lat="42.56196" lon="0.74956">
        <ele>1317.096</ele>
        <time>2021-07-22T15:55:00Z</time>
      </trkpt>
      <trkpt lat="42.56328" lon="0.74966">
        <ele>1322.86</ele>
        <time>2021-07-22T15:55:11Z</time>
      </trkpt>
      <trkpt lat="42.56479" lon="0.7503">
        <ele>1335.755</ele>
        <time>2021-07-22T15:55:22Z</time>
      </trkpt>
      <trkpt lat="42.56664" lon="0.75182">
        <ele>1346.804</ele>
        <time>2021-07-22T15:55:33Z</time>
      </trkpt>
      <trkpt lat="42.56781" lon="0.75335">
        <ele>1359.746</ele>
        <time>2021-07-22T15:55:44Z</time>
      </trkpt>
      <trkpt lat="42.56951" lon="0.75459">
        <ele>1362.485</ele>
        <time>2021-07-22T15:55:55Z</time>
      </trkpt>
      <trkpt lat="42.57145" lon="0.75521">
        <ele>1387.019</ele>
        <time>2021-07-22T15:56:06Z</time>
      </trkpt>
      <trkpt lat="42.5733" lon="0.75576">
        <ele>1393.491</ele>
        <time>2021-07-22T15:56:17Z</time>
      </trkpt>
      <trkpt lat="42.57458" lon="0.75625">
        <ele>1413.613</ele>
        <time>2021-07-22T15:56:28Z</time>
      </trkpt>
      <trkpt lat="42.57564" lon="0.75634">
        <ele>1415.759</ele>
        <time>2021-07-22T15:56:39Z</time>
      </trkpt>
      <trkpt lat="42.57674" lon="0.75627">
        <ele>1421.969</ele>
        <time>2021-07-22T15:56:50Z</time>
      </trkpt>
      <trkpt lat="42.5777" lon="0.75634">
        <ele>1430.389</ele>
        <time>2021-07-22T15:57:01Z</time>
      </trkpt>
      <trkpt lat="42.57931" lon="0.75641">
        <ele>1434.097</ele>
        <time>2021-07-22T15:57:17Z</time>
      </trkpt>
      <trkpt lat="42.58053" lon="0.75619">
        <ele>1447.591</ele>
        <time>2021-07-22T15:57:28Z</time>
      </trkpt>
      <trkpt lat="42.58185" lon="0.75618">
        <ele>1449.886</ele>
        <time>2021-07-22T15:57:39Z</time>
      </trkpt>
      <trkpt lat="42.58335" lon="0.75628">
        <ele>1447.017</ele>
        <time>2021-07-22T15:57:50Z</time>
      </trkpt>
      <trkpt lat="42.58473" lon="0.75753">
        <ele>1445.566</ele>
        <time>2021-07-22T15:58:01Z</time>
      </trkpt>
      <trkpt lat="42.58638" lon="0.75804">
        <ele>1443.561</ele>
        <time>2021-07-22T15:58:12Z</time>
      </trkpt>
      <trkpt lat="42.58803" lon="0.75775">
        <ele>1444.268</ele>
        <time>2021-07-22T15:58:23Z</time>
      </trkpt>
      <trkpt lat="42.58977" lon="0.75811">
        <ele>1444.697</ele>
        <time>2021-07-22T15:58:34Z</time>
      </trkpt>
      <trkpt lat="42.59155" lon="0.75717">
        <ele>1442.695</ele>
        <time>2021-07-22T15:58:45Z</time>
      </trkpt>
      <trkpt lat="42.59317" lon="0.75741">
        <ele>1444.328</ele>
        <time>2021-07-22T15:58:56Z</time>
      </trkpt>
      <trkpt lat="42.59494" lon="0.75787">
        <ele>1444.425</ele>
        <time>2021-07-22T15:59:07Z</time>
      </trkpt>
      <trkpt lat="42.59647" lon="0.75878">
        <ele>1444.715</ele>
        <time>2021-07-22T15:59:18Z</time>
      </trkpt>
      <trkpt lat="42.59682" lon="0.76082">
        <ele>1446.921</ele>
        <time>2021-07-22T15:59:29Z</time>
      </trkpt>
      <trkpt lat="42.59786" lon="0.76246">
        <ele>1454.442</ele>
        <time>2021-07-22T15:59:40Z</time>
      </trkpt>
      <trkpt lat="42.59896" lon="0.76334">
        <ele>1465.318</ele>
        <time>2021-07-22T15:59:51Z</time>
      </trkpt>
      <trkpt lat="42.60034" lon="0.76354">
        <ele>1469.739</ele>
        <time>2021-07-22T16:00:02Z</time>
      </trkpt>
      <trkpt lat="42.60186" lon="0.76373">
        <ele>1474.157</ele>
        <time>2021-07-22T16:00:13Z</time>
      </trkpt>
      <trkpt lat="42.60294" lon="0.76457">
        <ele>1479.396</ele>
        <time>2021-07-22T16:00:24Z</time>
      </trkpt>
      <trkpt lat="42.60401" lon="0.76569">
        <ele>1491.542</ele>
        <time>2021-07-22T16:00:35Z</time>
      </trkpt>
      <trkpt lat="42.60514" lon="0.76624">
        <ele>1501.984</ele>
        <time>2021-07-22T16:00:46Z</time>
      </trkpt>
      <trkpt lat="42.60621" lon="0.76604">
        <ele>1508.6</ele>
        <time>2021-07-22T16:00:57Z</time>
      </trkpt>
      <trkpt lat="42.60735" lon="0.76598">
        <ele>1517.953</ele>
        <time>2021-07-22T16:01:08Z</time>
      </trkpt>
      <trkpt lat="42.60844" lon="0.76648">
        <ele>1526.122</ele>
        <time>2021-07-22T16:01:19Z</time>
      </trkpt>
      <trkpt lat="42.60954" lon="0.76679">
        <ele>1536.467</ele>
        <time>2021-07-22T16:01:30Z</time>
      </trkpt>
      <trkpt lat="42.61058" lon="0.76668">
        <ele>1543.559</ele>
        <time>2021-07-22T16:01:41Z</time>
      </trkpt>
      <trkpt lat="42.6115" lon="0.76649">
        <ele>1548.442</ele>
        <time>2021-07-22T16:01:52Z</time>
      </trkpt>
      <trkpt lat="42.61274" lon="0.7662">
        <ele>1554.209</ele>
        <time>2021-07-22T16:02:03Z</time>
      </trkpt>
      <trkpt lat="42.61402" lon="0.76592">
        <ele>1556.901</ele>
        <time>2021-07-22T16:02:14Z</time>
      </trkpt>
      <trkpt lat="42.61543" lon="0.76552">
        <ele>1563.52</ele>
        <time>2021-07-22T16:02:25Z</time>
      </trkpt>
      <trkpt lat="42.61683" lon="0.76486">
        <ele>1567.897</ele>
        <time>2021-07-22T16:02:36Z</time>
      </trkpt>
      <trkpt lat="42.61843" lon="0.76482">
        <ele>1571.948</ele>
        <time>2021-07-22T16:02:47Z</time>
      </trkpt>
      <trkpt lat="42.62004" lon="0.76499">
        <ele>1576.675</ele>
        <time>2021-07-22T16:02:58Z</time>
      </trkpt>
      <trkpt lat="42.62139" lon="0.76525">
        <ele>1585.337</ele>
        <time>2021-07-22T16:03:09Z</time>
      </trkpt>
      <trkpt lat="42.62259" lon="0.76522">
        <ele>1594.187</ele>
        <time>2021-07-22T16:03:20Z</time>
      </trkpt>
      <trkpt lat="42.62382" lon="0.7649">
        <ele>1597.188</ele>
        <time>2021-07-22T16:03:31Z</time>
      </trkpt>
      <trkpt lat="42.62517" lon="0.76458">
        <ele>1599.43</ele>
        <time>2021-07-22T16:03:42Z</time>
      </trkpt>
      <trkpt lat="42.62647" lon="0.76438">
        <ele>1598.664</ele>
        <time>2021-07-22T16:03:53Z</time>
      </trkpt>
      <trkpt lat="42.62788" lon="0.7644">
        <ele>1598.664</ele>
        <time>2021-07-22T16:04:04Z</time>
      </trkpt>
      <trkpt lat="42.62928" lon="0.7646">
        <ele>1598.664</ele>
        <time>2021-07-22T16:04:15Z</time>
      </trkpt>
      <trkpt lat="42.63067" lon="0.76491">
        <ele>1598.664</ele>
        <time>2021-07-22T16:04:26Z</time>
      </trkpt>
      <trkpt lat="42.63204" lon="0.7654">
        <ele>1598.664</ele>
        <time>2021-07-22T16:04:37Z</time>
      </trkpt>
      <trkpt lat="42.63339" lon="0.76593">
        <ele>1598.664</ele>
        <time>2021-07-22T16:04:48Z</time>
      </trkpt>
      <trkpt lat="42.63474" lon="0.76642">
        <ele>1598.664</ele>
        <time>2021-07-22T16:04:59Z</time>
      </trkpt>
      <trkpt lat="42.63612" lon="0.7669">
        <ele>1598.664</ele>
        <time>2021-07-22T16:05:10Z</time>
      </trkpt>
      <trkpt lat="42.63748" lon="0.76731">
        <ele>1598.664</ele>
        <time>2021-07-22T16:05:21Z</time>
      </trkpt>
      <trkpt lat="42.63886" lon="0.76772">
        <ele>1598.664</ele>
        <time>2021-07-22T16:05:32Z</time>
      </trkpt>
      <trkpt lat="42.64024" lon="0.76813">
        <ele>1598.664</ele>
        <time>2021-07-22T16:05:43Z</time>
      </trkpt>
      <trkpt lat="42.67074" lon="0.77845">
        <ele>1366.863</ele>
        <time>2021-07-22T16:08:00Z</time>
      </trkpt>
      <trkpt lat="42.67312" lon="0.77669">
        <ele>1387.311</ele>
        <time>2021-07-22T16:08:11Z</time>
      </trkpt>
      <trkpt lat="42.67401" lon="0.77508">
        <ele>1382.868</ele>
        <time>2021-07-22T16:08:22Z</time>
      </trkpt>
      <trkpt lat="42.67467" lon="0.77334">
        <ele>1370.782</ele>
        <time>2021-07-22T16:08:33Z</time>
      </trkpt>
      <trkpt lat="42.67503" lon="0.77147">
        <ele>1361.716</ele>
        <time>2021-07-22T16:08:44Z</time>
      </trkpt>
      <trkpt lat="42.67533" lon="0.76976">
        <ele>1353.524</ele>
        <time>2021-07-22T16:08:55Z</time>
      </trkpt>
      <trkpt lat="42.67615" lon="0.7692">
        <ele>1353.62</ele>
        <time>2021-07-22T16:09:06Z</time>
      </trkpt>
      <trkpt lat="42.6763" lon="0.7705">
        <ele>1351.699</ele>
        <time>2021-07-22T16:09:17Z</time>
      </trkpt>
      <trkpt lat="42.6763" lon="0.77214">
        <ele>1341.618</ele>
        <time>2021-07-22T16:09:28Z</time>
      </trkpt>
      <trkpt lat="42.67662" lon="0.77361">
        <ele>1336.628</ele>
        <time>2021-07-22T16:09:39Z</time>
      </trkpt>
      <trkpt lat="42.67673" lon="0.77513">
        <ele>1328.815</ele>
        <time>2021-07-22T16:09:50Z</time>
      </trkpt>
      <trkpt lat="42.67652" lon="0.77765">
        <ele>1320.457</ele>
        <time>2021-07-22T16:10:01Z</time>
      </trkpt>
      <trkpt lat="42.67649" lon="0.7809">
        <ele>1300.779</ele>
        <time>2021-07-22T16:10:13Z</time>
      </trkpt>
      <trkpt lat="42.67714" lon="0.78315">
        <ele>1286.103</ele>
        <time>2021-07-22T16:10:24Z</time>
      </trkpt>
      <trkpt lat="42.67779" lon="0.78469">
        <ele>1279.536</ele>
        <time>2021-07-22T16:10:35Z</time>
      </trkpt>
      <trkpt lat="42.67849" lon="0.78576">
        <ele>1272.066</ele>
        <time>2021-07-22T16:10:46Z</time>
      </trkpt>
      <trkpt lat="42.67931" lon="0.7868">
        <ele>1263.737</ele>
        <time>2021-07-22T16:10:57Z</time>
      </trkpt>
      <trkpt lat="42.68034" lon="0.78724">
        <ele>1259.881</ele>
        <time>2021-07-22T16:11:08Z</time>
      </trkpt>
      <trkpt lat="42.68198" lon="0.7878">
        <ele>1250.77</ele>
        <time>2021-07-22T16:11:19Z</time>
      </trkpt>
      <trkpt lat="42.68368" lon="0.78782">
        <ele>1235.48</ele>
        <time>2021-07-22T16:11:30Z</time>
      </trkpt>
      <trkpt lat="42.68528" lon="0.78764">
        <ele>1221.771</ele>
        <time>2021-07-22T16:11:41Z</time>
      </trkpt>
      <trkpt lat="42.68677" lon="0.78757">
        <ele>1210.188</ele>
        <time>2021-07-22T16:11:52Z</time>
      </trkpt>
      <trkpt lat="42.68807" lon="0.78774">
        <ele>1195.896</ele>
        <time>2021-07-22T16:12:03Z</time>
      </trkpt>
      <trkpt lat="42.68915" lon="0.78721">
        <ele>1195.885</ele>
        <time>2021-07-22T16:12:14Z</time>
      </trkpt>
      <trkpt lat="42.69031" lon="0.78692">
        <ele>1188.074</ele>
        <time>2021-07-22T16:12:25Z</time>
      </trkpt>
      <trkpt lat="42.69154" lon="0.78742">
        <ele>1181.254</ele>
        <time>2021-07-22T16:12:36Z</time>
      </trkpt>
      <trkpt lat="42.69272" lon="0.78754">
        <ele>1175.746</ele>
        <time>2021-07-22T16:12:47Z</time>
      </trkpt>
      <trkpt lat="42.69394" lon="0.78777">
        <ele>1172.497</ele>
        <time>2021-07-22T16:12:58Z</time>
      </trkpt>
      <trkpt lat="42.69507" lon="0.78822">
        <ele>1160.889</ele>
        <time>2021-07-22T16:13:09Z</time>
      </trkpt>
      <trkpt lat="42.69618" lon="0.78829">
        <ele>1151.658</ele>
        <time>2021-07-22T16:13:20Z</time>
      </trkpt>
      <trkpt lat="42.69718" lon="0.78891">
        <ele>1141.577</ele>
        <time>2021-07-22T16:13:31Z</time>
      </trkpt>
      <trkpt lat="42.69817" lon="0.78877">
        <ele>1132.494</ele>
        <time>2021-07-22T16:13:42Z</time>
      </trkpt>
      <trkpt lat="42.6991" lon="0.78918">
        <ele>1123.593</ele>
        <time>2021-07-22T16:13:53Z</time>
      </trkpt>
      <trkpt lat="42.69979" lon="0.78887">
        <ele>1116.57</ele>
        <time>2021-07-22T16:14:04Z</time>
      </trkpt>
      <trkpt lat="42.69976" lon="0.7897">
        <ele>1107.301</ele>
        <time>2021-07-22T16:14:15Z</time>
      </trkpt>
      <trkpt lat="42.6992" lon="0.7906">
        <ele>1097.945</ele>
        <time>2021-07-22T16:14:26Z</time>
      </trkpt>
      <trkpt lat="42.69824" lon="0.79065">
        <ele>1091.038</ele>
        <time>2021-07-22T16:14:37Z</time>
      </trkpt>
      <trkpt lat="42.69803" lon="0.79136">
        <ele>1084.741</ele>
        <time>2021-07-22T16:14:48Z</time>
      </trkpt>
      <trkpt lat="42.69928" lon="0.79163">
        <ele>1078.411</ele>
        <time>2021-07-22T16:14:59Z</time>
      </trkpt>
      <trkpt lat="42.70018" lon="0.79112">
        <ele>1077.256</ele>
        <time>2021-07-22T16:15:10Z</time>
      </trkpt>
      <trkpt lat="42.70142" lon="0.79028">
        <ele>1064.865</ele>
        <time>2021-07-22T16:15:21Z</time>
      </trkpt>
      <trkpt lat="42.7029" lon="0.78951">
        <ele>1054.048</ele>
        <time>2021-07-22T16:15:32Z</time>
      </trkpt>
      <trkpt lat="42.70437" lon="0.78936">
        <ele>1043.423</ele>
        <time>2021-07-22T16:15:43Z</time>
      </trkpt>
      <trkpt lat="42.70539" lon="0.78899">
        <ele>1038.595</ele>
        <time>2021-07-22T16:15:54Z</time>
      </trkpt>
      <trkpt lat="42.7055" lon="0.78958">
        <ele>1029.265</ele>
        <time>2021-07-22T16:16:05Z</time>
      </trkpt>
      <trkpt lat="42.70438" lon="0.78982">
        <ele>1021.558</ele>
        <time>2021-07-22T16:16:16Z</time>
      </trkpt>
      <trkpt lat="42.70326" lon="0.79045">
        <ele>1010.331</ele>
        <time>2021-07-22T16:16:27Z</time>
      </trkpt>
      <trkpt lat="42.70248" lon="0.79126">
        <ele>994.1895</ele>
        <time>2021-07-22T16:16:38Z</time>
      </trkpt>
      <trkpt lat="42.70169" lon="0.79223">
        <ele>983.5252</ele>
        <time>2021-07-22T16:16:49Z</time>
      </trkpt>
      <trkpt lat="42.70141" lon="0.79307">
        <ele>978.1567</ele>
        <time>2021-07-22T16:17:00Z</time>
      </trkpt>
      <trkpt lat="42.70199" lon="0.79317">
        <ele>977.7734</ele>
        <time>2021-07-22T16:17:11Z</time>
      </trkpt>
      <trkpt lat="42.70185" lon="0.79301">
        <ele>972.3119</ele>
        <time>2021-07-22T16:17:22Z</time>
      </trkpt>
      <trkpt lat="42.70185" lon="0.79302">
        <ele>960.4716</ele>
        <time>2021-07-22T16:18:21Z</time>
      </trkpt>
      <trkpt lat="42.70188" lon="0.79297">
        <ele>958.1232</ele>
        <time>2021-07-22T16:18:32Z</time>
      </trkpt>
      <trkpt lat="42.70188" lon="0.79297">
        <ele>945.6927</ele>
        <time>2021-07-22T16:19:32Z</time>
      </trkpt>
      <trkpt lat="42.70188" lon="0.79297">
        <ele>945.6927</ele>
        <time>2021-07-22T16:20:31Z</time>
      </trkpt>
      <trkpt lat="42.70188" lon="0.79297">
        <ele>945.6927</ele>
        <time>2021-07-22T16:21:30Z</time>
      </trkpt>
      <trkpt lat="42.70185" lon="0.79302">
        <ele>941.7701</ele>
        <time>2021-07-22T16:21:55Z</time>
      </trkpt>
      <trkpt lat="42.70179" lon="0.79304">
        <ele>944.6877</ele>
        <time>2021-07-22T16:22:06Z</time>
      </trkpt>
      <trkpt lat="42.70174" lon="0.793">
        <ele>950.5449</ele>
        <time>2021-07-22T16:22:25Z</time>
      </trkpt>
      <trkpt lat="42.70173" lon="0.79306">
        <ele>952.7713</ele>
        <time>2021-07-22T16:22:36Z</time>
      </trkpt>
      <trkpt lat="42.70173" lon="0.79306">
        <ele>952.6964</ele>
        <time>2021-07-22T16:23:35Z</time>
      </trkpt>
      <trkpt lat="42.70172" lon="0.79302">
        <ele>952.6964</ele>
        <time>2021-07-22T16:24:34Z</time>
      </trkpt>
      <trkpt lat="42.70172" lon="0.79302">
        <ele>952.6964</ele>
        <time>2021-07-22T16:25:33Z</time>
      </trkpt>
      <trkpt lat="42.70173" lon="0.79306">
        <ele>952.6964</ele>
        <time>2021-07-22T16:26:32Z</time>
      </trkpt>
      <trkpt lat="42.70173" lon="0.79306">
        <ele>952.6964</ele>
        <time>2021-07-22T16:27:31Z</time>
      </trkpt>
      <trkpt lat="42.70176" lon="0.79304">
        <ele>962.3458</ele>
        <time>2021-07-22T16:28:29Z</time>
      </trkpt>
      <trkpt lat="42.70173" lon="0.79306">
        <ele>968.9106</ele>
        <time>2021-07-22T16:28:52Z</time>
      </trkpt>
      <trkpt lat="42.7017" lon="0.79309">
        <ele>965.0085</ele>
        <time>2021-07-22T16:29:15Z</time>
      </trkpt>
      <trkpt lat="42.70164" lon="0.79313">
        <ele>966.348</ele>
        <time>2021-07-22T16:29:53Z</time>
      </trkpt>
      <trkpt lat="42.70168" lon="0.79319">
        <ele>968.7798</ele>
        <time>2021-07-22T16:30:04Z</time>
      </trkpt>
      <trkpt lat="42.702" lon="0.79316">
        <ele>968.4288</ele>
        <time>2021-07-22T16:30:15Z</time>
      </trkpt>
      <trkpt lat="42.70281" lon="0.79313">
        <ele>972.3551</ele>
        <time>2021-07-22T16:30:26Z</time>
      </trkpt>
      <trkpt lat="42.70356" lon="0.79384">
        <ele>975.4801</ele>
        <time>2021-07-22T16:30:37Z</time>
      </trkpt>
      <trkpt lat="42.70431" lon="0.79466">
        <ele>971.5077</ele>
        <time>2021-07-22T16:30:48Z</time>
      </trkpt>
      <trkpt lat="42.70471" lon="0.79508">
        <ele>971.6834</ele>
        <time>2021-07-22T16:30:59Z</time>
      </trkpt>
      <trkpt lat="42.70517" lon="0.79553">
        <ele>966.6781</ele>
        <time>2021-07-22T16:31:10Z</time>
      </trkpt>
      <trkpt lat="42.70587" lon="0.7958">
        <ele>963.1958</ele>
        <time>2021-07-22T16:31:21Z</time>
      </trkpt>
      <trkpt lat="42.70646" lon="0.79598">
        <ele>957.3143</ele>
        <time>2021-07-22T16:31:32Z</time>
      </trkpt>
      <trkpt lat="42.70761" lon="0.7962">
        <ele>954.4537</ele>
        <time>2021-07-22T16:31:43Z</time>
      </trkpt>
      <trkpt lat="42.70895" lon="0.79653">
        <ele>951.0023</ele>
        <time>2021-07-22T16:31:54Z</time>
      </trkpt>
      <trkpt lat="42.71049" lon="0.79681">
        <ele>948.5053</ele>
        <time>2021-07-22T16:32:05Z</time>
      </trkpt>
      <trkpt lat="42.71208" lon="0.79706">
        <ele>945.9757</ele>
        <time>2021-07-22T16:32:16Z</time>
      </trkpt>
      <trkpt lat="42.71364" lon="0.7973">
        <ele>943.5232</ele>
        <time>2021-07-22T16:32:27Z</time>
      </trkpt>
      <trkpt lat="42.71529" lon="0.79687">
        <ele>941.1821</ele>
        <time>2021-07-22T16:32:38Z</time>
      </trkpt>
      <trkpt lat="42.71667" lon="0.79664">
        <ele>937.4206</ele>
        <time>2021-07-22T16:32:49Z</time>
      </trkpt>
      <trkpt lat="42.71802" lon="0.79593">
        <ele>939.336</ele>
        <time>2021-07-22T16:33:00Z</time>
      </trkpt>
      <trkpt lat="42.71967" lon="0.79448">
        <ele>934.7417</ele>
        <time>2021-07-22T16:33:11Z</time>
      </trkpt>
      <trkpt lat="42.72085" lon="0.79233">
        <ele>930.3873</ele>
        <time>2021-07-22T16:33:22Z</time>
      </trkpt>
      <trkpt lat="42.72189" lon="0.79037">
        <ele>931.8487</ele>
        <time>2021-07-22T16:33:33Z</time>
      </trkpt>
      <trkpt lat="42.72357" lon="0.78968">
        <ele>934.631</ele>
        <time>2021-07-22T16:33:44Z</time>
      </trkpt>
      <trkpt lat="42.72414" lon="0.78739">
        <ele>929.6367</ele>
        <time>2021-07-22T16:33:55Z</time>
      </trkpt>
      <trkpt lat="42.7253" lon="0.78562">
        <ele>929.2132</ele>
        <time>2021-07-22T16:34:06Z</time>
      </trkpt>
      <trkpt lat="42.72626" lon="0.78413">
        <ele>922.7455</ele>
        <time>2021-07-22T16:34:17Z</time>
      </trkpt>
      <trkpt lat="42.72809" lon="0.78231">
        <ele>912.892</ele>
        <time>2021-07-22T16:34:28Z</time>
      </trkpt>
      <trkpt lat="42.72951" lon="0.78024">
        <ele>912.4967</ele>
        <time>2021-07-22T16:34:39Z</time>
      </trkpt>
      <trkpt lat="42.73033" lon="0.77777">
        <ele>906.0619</ele>
        <time>2021-07-22T16:34:50Z</time>
      </trkpt>
      <trkpt lat="42.73163" lon="0.77617">
        <ele>912.85</ele>
        <time>2021-07-22T16:35:01Z</time>
      </trkpt>
      <trkpt lat="42.73305" lon="0.77424">
        <ele>907.9414</ele>
        <time>2021-07-22T16:35:12Z</time>
      </trkpt>
      <trkpt lat="42.73349" lon="0.77145">
        <ele>894.2977</ele>
        <time>2021-07-22T16:35:23Z</time>
      </trkpt>
      <trkpt lat="42.73371" lon="0.76867">
        <ele>885.6004</ele>
        <time>2021-07-22T16:35:34Z</time>
      </trkpt>
      <trkpt lat="42.7348" lon="0.76673">
        <ele>882.9883</ele>
        <time>2021-07-22T16:35:45Z</time>
      </trkpt>
      <trkpt lat="42.73596" lon="0.76492">
        <ele>882.8266</ele>
        <time>2021-07-22T16:35:56Z</time>
      </trkpt>
      <trkpt lat="42.73612" lon="0.76241">
        <ele>875.0189</ele>
        <time>2021-07-22T16:36:07Z</time>
      </trkpt>
      <trkpt lat="42.73653" lon="0.76028">
        <ele>874.1394</ele>
        <time>2021-07-22T16:36:18Z</time>
      </trkpt>
      <trkpt lat="42.73743" lon="0.75874">
        <ele>875.594</ele>
        <time>2021-07-22T16:36:29Z</time>
      </trkpt>
      <trkpt lat="42.73778" lon="0.75712">
        <ele>871.5355</ele>
        <time>2021-07-22T16:36:40Z</time>
      </trkpt>
      <trkpt lat="42.73781" lon="0.75558">
        <ele>870.6917</ele>
        <time>2021-07-22T16:36:51Z</time>
      </trkpt>
      <trkpt lat="42.73762" lon="0.75354">
        <ele>865.2931</ele>
        <time>2021-07-22T16:37:02Z</time>
      </trkpt>
      <trkpt lat="42.73807" lon="0.75139">
        <ele>858.2948</ele>
        <time>2021-07-22T16:37:13Z</time>
      </trkpt>
      <trkpt lat="42.73735" lon="0.74782">
        <ele>852.1959</ele>
        <time>2021-07-22T16:37:24Z</time>
      </trkpt>
      <trkpt lat="42.73677" lon="0.74425">
        <ele>849.1259</ele>
        <time>2021-07-22T16:37:35Z</time>
      </trkpt>
      <trkpt lat="42.73731" lon="0.74057">
        <ele>843.1312</ele>
        <time>2021-07-22T16:37:46Z</time>
      </trkpt>
      <trkpt lat="42.73752" lon="0.73691">
        <ele>833.7776</ele>
        <time>2021-07-22T16:37:57Z</time>
      </trkpt>
      <trkpt lat="42.73807" lon="0.73369">
        <ele>834.3346</ele>
        <time>2021-07-22T16:38:08Z</time>
      </trkpt>
      <trkpt lat="42.73844" lon="0.73062">
        <ele>837.6868</ele>
        <time>2021-07-22T16:38:19Z</time>
      </trkpt>
      <trkpt lat="42.73837" lon="0.72722">
        <ele>825.4659</ele>
        <time>2021-07-22T16:38:30Z</time>
      </trkpt>
      <trkpt lat="42.73876" lon="0.72385">
        <ele>806.799</ele>
        <time>2021-07-22T16:38:41Z</time>
      </trkpt>
      <trkpt lat="42.73929" lon="0.72036">
        <ele>801.9366</ele>
        <time>2021-07-22T16:38:52Z</time>
      </trkpt>
      <trkpt lat="42.74048" lon="0.71736">
        <ele>806.6553</ele>
        <time>2021-07-22T16:39:03Z</time>
      </trkpt>
      <trkpt lat="42.74136" lon="0.71407">
        <ele>803.5573</ele>
        <time>2021-07-22T16:39:14Z</time>
      </trkpt>
      <trkpt lat="42.74158" lon="0.7106">
        <ele>802.9108</ele>
        <time>2021-07-22T16:39:25Z</time>
      </trkpt>
      <trkpt lat="42.74318" lon="0.70815">
        <ele>799.4666</ele>
        <time>2021-07-22T16:39:36Z</time>
      </trkpt>
      <trkpt lat="42.74523" lon="0.70578">
        <ele>792.3886</ele>
        <time>2021-07-22T16:39:47Z</time>
      </trkpt>
      <trkpt lat="42.74706" lon="0.70323">
        <ele>796.0797</ele>
        <time>2021-07-22T16:39:58Z</time>
      </trkpt>
      <trkpt lat="42.74899" lon="0.70094">
        <ele>784.5052</ele>
        <time>2021-07-22T16:40:09Z</time>
      </trkpt>
      <trkpt lat="42.75127" lon="0.69921">
        <ele>782.0785</ele>
        <time>2021-07-22T16:40:20Z</time>
      </trkpt>
      <trkpt lat="42.75373" lon="0.69776">
        <ele>784.7754</ele>
        <time>2021-07-22T16:40:31Z</time>
      </trkpt>
      <trkpt lat="42.75622" lon="0.6962">
        <ele>775.4386</ele>
        <time>2021-07-22T16:40:42Z</time>
      </trkpt>
      <trkpt lat="42.75841" lon="0.69392">
        <ele>767.1424</ele>
        <time>2021-07-22T16:40:53Z</time>
      </trkpt>
      <trkpt lat="42.76061" lon="0.69193">
        <ele>759.473</ele>
        <time>2021-07-22T16:41:04Z</time>
      </trkpt>
      <trkpt lat="42.76286" lon="0.69027">
        <ele>752.2488</ele>
        <time>2021-07-22T16:41:15Z</time>
      </trkpt>
      <trkpt lat="42.76479" lon="0.68791">
        <ele>746.2422</ele>
        <time>2021-07-22T16:41:26Z</time>
      </trkpt>
      <trkpt lat="42.76711" lon="0.6864">
        <ele>745.9501</ele>
        <time>2021-07-22T16:41:37Z</time>
      </trkpt>
      <trkpt lat="42.76958" lon="0.68585">
        <ele>749.2353</ele>
        <time>2021-07-22T16:41:48Z</time>
      </trkpt>
      <trkpt lat="42.77234" lon="0.68523">
        <ele>746.8709</ele>
        <time>2021-07-22T16:41:59Z</time>
      </trkpt>
      <trkpt lat="42.77507" lon="0.68483">
        <ele>732.6791</ele>
        <time>2021-07-22T16:42:10Z</time>
      </trkpt>
      <trkpt lat="42.77751" lon="0.68627">
        <ele>725.0955</ele>
        <time>2021-07-22T16:42:21Z</time>
      </trkpt>
      <trkpt lat="42.77891" lon="0.68957">
        <ele>717.2173</ele>
        <time>2021-07-22T16:42:32Z</time>
      </trkpt>
      <trkpt lat="42.78057" lon="0.69016">
        <ele>718.9587</ele>
        <time>2021-07-22T16:42:43Z</time>
      </trkpt>
      <trkpt lat="42.78185" lon="0.69085">
        <ele>717.9304</ele>
        <time>2021-07-22T16:42:54Z</time>
      </trkpt>
      <trkpt lat="42.78319" lon="0.69188">
        <ele>714.9624</ele>
        <time>2021-07-22T16:43:05Z</time>
      </trkpt>
      <trkpt lat="42.78395" lon="0.69247">
        <ele>714.0598</ele>
        <time>2021-07-22T16:43:16Z</time>
      </trkpt>
      <trkpt lat="42.78391" lon="0.69246">
        <ele>713.3163</ele>
        <time>2021-07-22T16:43:27Z</time>
      </trkpt>
      <trkpt lat="42.78402" lon="0.69245">
        <ele>713.4601</ele>
        <time>2021-07-22T16:43:51Z</time>
      </trkpt>
      <trkpt lat="42.78495" lon="0.69273">
        <ele>711.753</ele>
        <time>2021-07-22T16:44:02Z</time>
      </trkpt>
      <trkpt lat="42.78516" lon="0.69279">
        <ele>713.8134</ele>
        <time>2021-07-22T16:44:13Z</time>
      </trkpt>
      <trkpt lat="42.78635" lon="0.69339">
        <ele>710.883</ele>
        <time>2021-07-22T16:44:24Z</time>
      </trkpt>
      <trkpt lat="42.78765" lon="0.69422">
        <ele>709.9291</ele>
        <time>2021-07-22T16:44:35Z</time>
      </trkpt>
      <trkpt lat="42.78882" lon="0.69557">
        <ele>706.3496</ele>
        <time>2021-07-22T16:44:46Z</time>
      </trkpt>
      <trkpt lat="42.7902" lon="0.69706">
        <ele>703.3135</ele>
        <time>2021-07-22T16:44:57Z</time>
      </trkpt>
      <trkpt lat="42.79261" lon="0.6981">
        <ele>698.6863</ele>
        <time>2021-07-22T16:45:08Z</time>
      </trkpt>
      <trkpt lat="42.79517" lon="0.69854">
        <ele>680.4748</ele>
        <time>2021-07-22T16:45:19Z</time>
      </trkpt>
      <trkpt lat="42.79746" lon="0.70055">
        <ele>675.9554</ele>
        <time>2021-07-22T16:45:30Z</time>
      </trkpt>
      <trkpt lat="42.79988" lon="0.70216">
        <ele>665.7425</ele>
        <time>2021-07-22T16:45:41Z</time>
      </trkpt>
      <trkpt lat="42.80233" lon="0.70333">
        <ele>659.5895</ele>
        <time>2021-07-22T16:45:52Z</time>
      </trkpt>
      <trkpt lat="42.80455" lon="0.70434">
        <ele>652.4953</ele>
        <time>2021-07-22T16:46:03Z</time>
      </trkpt>
      <trkpt lat="42.80628" lon="0.70581">
        <ele>639.5914</ele>
        <time>2021-07-22T16:46:14Z</time>
      </trkpt>
      <trkpt lat="42.80828" lon="0.70701">
        <ele>645.5259</ele>
        <time>2021-07-22T16:46:25Z</time>
      </trkpt>
      <trkpt lat="42.80932" lon="0.70872">
        <ele>644.0694</ele>
        <time>2021-07-22T16:46:36Z</time>
      </trkpt>
      <trkpt lat="42.80987" lon="0.70955">
        <ele>645.1564</ele>
        <time>2021-07-22T16:46:47Z</time>
      </trkpt>
      <trkpt lat="42.81021" lon="0.70987">
        <ele>646.1578</ele>
        <time>2021-07-22T16:46:58Z</time>
      </trkpt>
      <trkpt lat="42.81115" lon="0.70998">
        <ele>645.6397</ele>
        <time>2021-07-22T16:47:09Z</time>
      </trkpt>
      <trkpt lat="42.81266" lon="0.71002">
        <ele>643.3388</ele>
        <time>2021-07-22T16:47:20Z</time>
      </trkpt>
      <trkpt lat="42.81419" lon="0.7101">
        <ele>644.1915</ele>
        <time>2021-07-22T16:47:31Z</time>
      </trkpt>
      <trkpt lat="42.81563" lon="0.71019">
        <ele>637.1977</ele>
        <time>2021-07-22T16:47:42Z</time>
      </trkpt>
      <trkpt lat="42.8162" lon="0.7106">
        <ele>635.6031</ele>
        <time>2021-07-22T16:47:53Z</time>
      </trkpt>
      <trkpt lat="42.81637" lon="0.71099">
        <ele>635.2918</ele>
        <time>2021-07-22T16:48:04Z</time>
      </trkpt>
      <trkpt lat="42.81728" lon="0.71142">
        <ele>632.304</ele>
        <time>2021-07-22T16:48:15Z</time>
      </trkpt>
      <trkpt lat="42.81845" lon="0.71208">
        <ele>632.8724</ele>
        <time>2021-07-22T16:48:26Z</time>
      </trkpt>
      <trkpt lat="42.81995" lon="0.71304">
        <ele>631.6852</ele>
        <time>2021-07-22T16:48:37Z</time>
      </trkpt>
      <trkpt lat="42.82104" lon="0.71472">
        <ele>628.7177</ele>
        <time>2021-07-22T16:48:48Z</time>
      </trkpt>
      <trkpt lat="42.82201" lon="0.71674">
        <ele>628.7023</ele>
        <time>2021-07-22T16:48:59Z</time>
      </trkpt>
      <trkpt lat="42.82267" lon="0.719">
        <ele>631.2848</ele>
        <time>2021-07-22T16:49:10Z</time>
      </trkpt>
      <trkpt lat="42.82378" lon="0.72092">
        <ele>626.076</ele>
        <time>2021-07-22T16:49:21Z</time>
      </trkpt>
      <trkpt lat="42.8247" lon="0.72281">
        <ele>625.2762</ele>
        <time>2021-07-22T16:49:32Z</time>
      </trkpt>
      <trkpt lat="42.8253" lon="0.7248">
        <ele>627.0247</ele>
        <time>2021-07-22T16:49:43Z</time>
      </trkpt>
      <trkpt lat="42.82705" lon="0.72562">
        <ele>617.7909</ele>
        <time>2021-07-22T16:49:54Z</time>
      </trkpt>
      <trkpt lat="42.82826" lon="0.72723">
        <ele>616.6233</ele>
        <time>2021-07-22T16:50:05Z</time>
      </trkpt>
      <trkpt lat="42.83012" lon="0.72813">
        <ele>611.2975</ele>
        <time>2021-07-22T16:50:16Z</time>
      </trkpt>
      <trkpt lat="42.83148" lon="0.72952">
        <ele>612.5317</ele>
        <time>2021-07-22T16:50:27Z</time>
      </trkpt>
      <trkpt lat="42.83331" lon="0.72974">
        <ele>614.9169</ele>
        <time>2021-07-22T16:50:38Z</time>
      </trkpt>
      <trkpt lat="42.83479" lon="0.7303">
        <ele>617.5266</ele>
        <time>2021-07-22T16:50:49Z</time>
      </trkpt>
      <trkpt lat="42.83661" lon="0.73049">
        <ele>613.1238</ele>
        <time>2021-07-22T16:51:00Z</time>
      </trkpt>
      <trkpt lat="42.83808" lon="0.73152">
        <ele>607.797</ele>
        <time>2021-07-22T16:51:11Z</time>
      </trkpt>
      <trkpt lat="42.83981" lon="0.7314">
        <ele>602.8788</ele>
        <time>2021-07-22T16:51:22Z</time>
      </trkpt>
      <trkpt lat="42.84166" lon="0.73073">
        <ele>603.4642</ele>
        <time>2021-07-22T16:51:33Z</time>
      </trkpt>
      <trkpt lat="42.84343" lon="0.73148">
        <ele>598.7228</ele>
        <time>2021-07-22T16:51:44Z</time>
      </trkpt>
      <trkpt lat="42.84498" lon="0.73258">
        <ele>597.9576</ele>
        <time>2021-07-22T16:51:55Z</time>
      </trkpt>
      <trkpt lat="42.84664" lon="0.73363">
        <ele>594.7521</ele>
        <time>2021-07-22T16:52:06Z</time>
      </trkpt>
      <trkpt lat="42.84799" lon="0.73515">
        <ele>590.1318</ele>
        <time>2021-07-22T16:52:17Z</time>
      </trkpt>
      <trkpt lat="42.84929" lon="0.73611">
        <ele>588.953</ele>
        <time>2021-07-22T16:52:28Z</time>
      </trkpt>
      <trkpt lat="42.85086" lon="0.73605">
        <ele>587.7128</ele>
        <time>2021-07-22T16:52:39Z</time>
      </trkpt>
      <trkpt lat="42.85269" lon="0.73588">
        <ele>591.47</ele>
        <time>2021-07-22T16:52:50Z</time>
      </trkpt>
      <trkpt lat="42.85442" lon="0.73582">
        <ele>587.1469</ele>
        <time>2021-07-22T16:53:01Z</time>
      </trkpt>
      <trkpt lat="42.85591" lon="0.73646">
        <ele>587.4246</ele>
        <time>2021-07-22T16:53:12Z</time>
      </trkpt>
      <trkpt lat="42.85642" lon="0.73787">
        <ele>589.6997</ele>
        <time>2021-07-22T16:53:23Z</time>
      </trkpt>
      <trkpt lat="42.85656" lon="0.73999">
        <ele>584.6136</ele>
        <time>2021-07-22T16:53:34Z</time>
      </trkpt>
      <trkpt lat="42.85685" lon="0.74219">
        <ele>575.9138</ele>
        <time>2021-07-22T16:53:45Z</time>
      </trkpt>
      <trkpt lat="42.8575" lon="0.74415">
        <ele>570.103</ele>
        <time>2021-07-22T16:53:56Z</time>
      </trkpt>
      <trkpt lat="42.85837" lon="0.74608">
        <ele>564.6794</ele>
        <time>2021-07-22T16:54:07Z</time>
      </trkpt>
      <trkpt lat="42.85933" lon="0.74765">
        <ele>565.8063</ele>
        <time>2021-07-22T16:54:18Z</time>
      </trkpt>
      <trkpt lat="42.86076" lon="0.74825">
        <ele>568.925</ele>
        <time>2021-07-22T16:54:29Z</time>
      </trkpt>
      <trkpt lat="42.86224" lon="0.74818">
        <ele>567.0675</ele>
        <time>2021-07-22T16:54:40Z</time>
      </trkpt>
      <trkpt lat="42.86346" lon="0.74897">
        <ele>563.281</ele>
        <time>2021-07-22T16:54:51Z</time>
      </trkpt>
      <trkpt lat="42.8643" lon="0.74979">
        <ele>556.9291</ele>
        <time>2021-07-22T16:55:02Z</time>
      </trkpt>
      <trkpt lat="42.86502" lon="0.74998">
        <ele>558.4118</ele>
        <time>2021-07-22T16:55:13Z</time>
      </trkpt>
      <trkpt lat="42.86559" lon="0.75009">
        <ele>566.4046</ele>
        <time>2021-07-22T16:55:24Z</time>
      </trkpt>
      <trkpt lat="42.86601" lon="0.74954">
        <ele>564.1253</ele>
        <time>2021-07-22T16:55:35Z</time>
      </trkpt>
      <trkpt lat="42.86603" lon="0.74882">
        <ele>564.6381</ele>
        <time>2021-07-22T16:55:46Z</time>
      </trkpt>
      <trkpt lat="42.86633" lon="0.74754">
        <ele>562.5396</ele>
        <time>2021-07-22T16:55:57Z</time>
      </trkpt>
      <trkpt lat="42.86687" lon="0.74573">
        <ele>561.7386</ele>
        <time>2021-07-22T16:56:08Z</time>
      </trkpt>
      <trkpt lat="42.8673" lon="0.74335">
        <ele>564.9888</ele>
        <time>2021-07-22T16:56:19Z</time>
      </trkpt>
      <trkpt lat="42.86753" lon="0.74045">
        <ele>556.5126</ele>
        <time>2021-07-22T16:56:30Z</time>
      </trkpt>
      <trkpt lat="42.86868" lon="0.73749">
        <ele>554.3711</ele>
        <time>2021-07-22T16:56:41Z</time>
      </trkpt>
      <trkpt lat="42.87001" lon="0.7346">
        <ele>552.2598</ele>
        <time>2021-07-22T16:56:52Z</time>
      </trkpt>
      <trkpt lat="42.87126" lon="0.73188">
        <ele>550.227</ele>
        <time>2021-07-22T16:57:03Z</time>
      </trkpt>
      <trkpt lat="42.87226" lon="0.72974">
        <ele>549.6324</ele>
        <time>2021-07-22T16:57:14Z</time>
      </trkpt>
      <trkpt lat="42.87319" lon="0.72827">
        <ele>546.7319</ele>
        <time>2021-07-22T16:57:25Z</time>
      </trkpt>
      <trkpt lat="42.87367" lon="0.72772">
        <ele>545.5604</ele>
        <time>2021-07-22T16:57:36Z</time>
      </trkpt>
      <trkpt lat="42.87405" lon="0.72725">
        <ele>540.2044</ele>
        <time>2021-07-22T16:57:47Z</time>
      </trkpt>
      <trkpt lat="42.87478" lon="0.72626">
        <ele>540.3569</ele>
        <time>2021-07-22T16:57:58Z</time>
      </trkpt>
      <trkpt lat="42.8759" lon="0.72484">
        <ele>541.0923</ele>
        <time>2021-07-22T16:58:09Z</time>
      </trkpt>
      <trkpt lat="42.87728" lon="0.72312">
        <ele>540.2013</ele>
        <time>2021-07-22T16:58:20Z</time>
      </trkpt>
      <trkpt lat="42.87882" lon="0.72115">
        <ele>536.2971</ele>
        <time>2021-07-22T16:58:31Z</time>
      </trkpt>
      <trkpt lat="42.88036" lon="0.71923">
        <ele>532.6957</ele>
        <time>2021-07-22T16:58:42Z</time>
      </trkpt>
      <trkpt lat="42.88193" lon="0.71718">
        <ele>533.9729</ele>
        <time>2021-07-22T16:58:53Z</time>
      </trkpt>
      <trkpt lat="42.88381" lon="0.71496">
        <ele>538.0637</ele>
        <time>2021-07-22T16:59:04Z</time>
      </trkpt>
      <trkpt lat="42.88548" lon="0.71235">
        <ele>542.2512</ele>
        <time>2021-07-22T16:59:15Z</time>
      </trkpt>
      <trkpt lat="42.88697" lon="0.70961">
        <ele>533.9138</ele>
        <time>2021-07-22T16:59:26Z</time>
      </trkpt>
      <trkpt lat="42.88841" lon="0.707">
        <ele>524.4447</ele>
        <time>2021-07-22T16:59:37Z</time>
      </trkpt>
      <trkpt lat="42.89" lon="0.70514">
        <ele>522.4704</ele>
        <time>2021-07-22T16:59:48Z</time>
      </trkpt>
      <trkpt lat="42.8915" lon="0.70363">
        <ele>522.6028</ele>
        <time>2021-07-22T16:59:59Z</time>
      </trkpt>
      <trkpt lat="42.89319" lon="0.70217">
        <ele>524.3627</ele>
        <time>2021-07-22T17:00:10Z</time>
      </trkpt>
      <trkpt lat="42.89512" lon="0.70048">
        <ele>525.6021</ele>
        <time>2021-07-22T17:00:21Z</time>
      </trkpt>
      <trkpt lat="42.89735" lon="0.69908">
        <ele>527.9028</ele>
        <time>2021-07-22T17:00:32Z</time>
      </trkpt>
      <trkpt lat="42.8998" lon="0.69835">
        <ele>523.7292</ele>
        <time>2021-07-22T17:00:43Z</time>
      </trkpt>
      <trkpt lat="42.90187" lon="0.69652">
        <ele>518.713</ele>
        <time>2021-07-22T17:00:54Z</time>
      </trkpt>
      <trkpt lat="42.90302" lon="0.69402">
        <ele>514.4932</ele>
        <time>2021-07-22T17:01:05Z</time>
      </trkpt>
      <trkpt lat="42.90437" lon="0.6919">
        <ele>509.7079</ele>
        <time>2021-07-22T17:01:16Z</time>
      </trkpt>
      <trkpt lat="42.90636" lon="0.69102">
        <ele>509.3984</ele>
        <time>2021-07-22T17:01:27Z</time>
      </trkpt>
      <trkpt lat="42.90828" lon="0.69006">
        <ele>508.5537</ele>
        <time>2021-07-22T17:01:38Z</time>
      </trkpt>
      <trkpt lat="42.91005" lon="0.69065">
        <ele>510.7602</ele>
        <time>2021-07-22T17:01:49Z</time>
      </trkpt>
      <trkpt lat="42.91144" lon="0.69137">
        <ele>506.7617</ele>
        <time>2021-07-22T17:02:00Z</time>
      </trkpt>
      <trkpt lat="42.91214" lon="0.69175">
        <ele>506.244</ele>
        <time>2021-07-22T17:02:11Z</time>
      </trkpt>
      <trkpt lat="42.91266" lon="0.69208">
        <ele>509.5794</ele>
        <time>2021-07-22T17:02:22Z</time>
      </trkpt>
      <trkpt lat="42.9134" lon="0.69282">
        <ele>509.398</ele>
        <time>2021-07-22T17:02:33Z</time>
      </trkpt>
      <trkpt lat="42.91424" lon="0.69304">
        <ele>512.9097</ele>
        <time>2021-07-22T17:02:44Z</time>
      </trkpt>
      <trkpt lat="42.91503" lon="0.6925">
        <ele>509.971</ele>
        <time>2021-07-22T17:02:55Z</time>
      </trkpt>
      <trkpt lat="42.91545" lon="0.69201">
        <ele>511.2181</ele>
        <time>2021-07-22T17:03:06Z</time>
      </trkpt>
      <trkpt lat="42.91586" lon="0.69174">
        <ele>506.0068</ele>
        <time>2021-07-22T17:03:17Z</time>
      </trkpt>
      <trkpt lat="42.91651" lon="0.69095">
        <ele>506.4545</ele>
        <time>2021-07-22T17:03:28Z</time>
      </trkpt>
      <trkpt lat="42.91731" lon="0.69049">
        <ele>506.9217</ele>
        <time>2021-07-22T17:03:39Z</time>
      </trkpt>
      <trkpt lat="42.91825" lon="0.69">
        <ele>506.5321</ele>
        <time>2021-07-22T17:03:50Z</time>
      </trkpt>
      <trkpt lat="42.91923" lon="0.68936">
        <ele>501.1833</ele>
        <time>2021-07-22T17:04:01Z</time>
      </trkpt>
      <trkpt lat="42.92042" lon="0.68856">
        <ele>499.9485</ele>
        <time>2021-07-22T17:04:12Z</time>
      </trkpt>
      <trkpt lat="42.92159" lon="0.68755">
        <ele>501.4723</ele>
        <time>2021-07-22T17:04:23Z</time>
      </trkpt>
      <trkpt lat="42.92219" lon="0.68598">
        <ele>501.132</ele>
        <time>2021-07-22T17:04:34Z</time>
      </trkpt>
      <trkpt lat="42.92222" lon="0.68449">
        <ele>507.5452</ele>
        <time>2021-07-22T17:04:45Z</time>
      </trkpt>
      <trkpt lat="42.92279" lon="0.68385">
        <ele>508.0741</ele>
        <time>2021-07-22T17:04:56Z</time>
      </trkpt>
      <trkpt lat="42.92335" lon="0.68373">
        <ele>506.9391</ele>
        <time>2021-07-22T17:05:07Z</time>
      </trkpt>
      <trkpt lat="42.92384" lon="0.68222">
        <ele>502.8034</ele>
        <time>2021-07-22T17:05:18Z</time>
      </trkpt>
      <trkpt lat="42.92492" lon="0.68026">
        <ele>497.792</ele>
        <time>2021-07-22T17:05:29Z</time>
      </trkpt>
      <trkpt lat="42.92599" lon="0.67816">
        <ele>494.5286</ele>
        <time>2021-07-22T17:05:40Z</time>
      </trkpt>
      <trkpt lat="42.92655" lon="0.6758">
        <ele>490.7127</ele>
        <time>2021-07-22T17:05:51Z</time>
      </trkpt>
      <trkpt lat="42.92711" lon="0.67239">
        <ele>487.8776</ele>
        <time>2021-07-22T17:06:02Z</time>
      </trkpt>
      <trkpt lat="42.92766" lon="0.66906">
        <ele>487.1342</ele>
        <time>2021-07-22T17:06:13Z</time>
      </trkpt>
      <trkpt lat="42.92821" lon="0.66577">
        <ele>485.0353</ele>
        <time>2021-07-22T17:06:24Z</time>
      </trkpt>
      <trkpt lat="42.92835" lon="0.66242">
        <ele>484.4843</ele>
        <time>2021-07-22T17:06:35Z</time>
      </trkpt>
      <trkpt lat="42.92781" lon="0.65908">
        <ele>485.3126</ele>
        <time>2021-07-22T17:06:46Z</time>
      </trkpt>
      <trkpt lat="42.92747" lon="0.65606">
        <ele>489.8588</ele>
        <time>2021-07-22T17:06:57Z</time>
      </trkpt>
      <trkpt lat="42.92872" lon="0.65352">
        <ele>487.5735</ele>
        <time>2021-07-22T17:07:08Z</time>
      </trkpt>
      <trkpt lat="42.93096" lon="0.65226">
        <ele>482.9803</ele>
        <time>2021-07-22T17:07:19Z</time>
      </trkpt>
      <trkpt lat="42.93323" lon="0.65105">
        <ele>480.4835</ele>
        <time>2021-07-22T17:07:30Z</time>
      </trkpt>
      <trkpt lat="42.93551" lon="0.64985">
        <ele>480.2385</ele>
        <time>2021-07-22T17:07:41Z</time>
      </trkpt>
      <trkpt lat="42.9377" lon="0.64895">
        <ele>481.1395</ele>
        <time>2021-07-22T17:07:52Z</time>
      </trkpt>
      <trkpt lat="42.93892" lon="0.64884">
        <ele>479.1343</ele>
        <time>2021-07-22T17:08:03Z</time>
      </trkpt>
      <trkpt lat="42.93988" lon="0.64793">
        <ele>476.3813</ele>
        <time>2021-07-22T17:08:14Z</time>
      </trkpt>
      <trkpt lat="42.942" lon="0.64715">
        <ele>473.4047</ele>
        <time>2021-07-22T17:08:25Z</time>
      </trkpt>
      <trkpt lat="42.94425" lon="0.6463">
        <ele>473.3131</ele>
        <time>2021-07-22T17:08:36Z</time>
      </trkpt>
      <trkpt lat="42.94668" lon="0.6456">
        <ele>472.7014</ele>
        <time>2021-07-22T17:08:47Z</time>
      </trkpt>
      <trkpt lat="42.94872" lon="0.64368">
        <ele>472.2447</ele>
        <time>2021-07-22T17:08:58Z</time>
      </trkpt>
      <trkpt lat="42.95101" lon="0.64256">
        <ele>474.9144</ele>
        <time>2021-07-22T17:09:09Z</time>
      </trkpt>
      <trkpt lat="42.95346" lon="0.64315">
        <ele>479.0985</ele>
        <time>2021-07-22T17:09:20Z</time>
      </trkpt>
      <trkpt lat="42.95591" lon="0.64403">
        <ele>468.5433</ele>
        <time>2021-07-22T17:09:31Z</time>
      </trkpt>
      <trkpt lat="42.95813" lon="0.64568">
        <ele>468.1045</ele>
        <time>2021-07-22T17:09:42Z</time>
      </trkpt>
      <trkpt lat="42.96042" lon="0.64699">
        <ele>468.0497</ele>
        <time>2021-07-22T17:09:53Z</time>
      </trkpt>
      <trkpt lat="42.96291" lon="0.64768">
        <ele>467.6421</ele>
        <time>2021-07-22T17:10:04Z</time>
      </trkpt>
      <trkpt lat="42.96548" lon="0.64729">
        <ele>465.7693</ele>
        <time>2021-07-22T17:10:15Z</time>
      </trkpt>
      <trkpt lat="42.96802" lon="0.64711">
        <ele>463.2613</ele>
        <time>2021-07-22T17:10:26Z</time>
      </trkpt>
      <trkpt lat="42.97038" lon="0.64708">
        <ele>463.642</ele>
        <time>2021-07-22T17:10:37Z</time>
      </trkpt>
      <trkpt lat="42.97258" lon="0.6471">
        <ele>463.7108</ele>
        <time>2021-07-22T17:10:48Z</time>
      </trkpt>
      <trkpt lat="42.97461" lon="0.64661">
        <ele>463.367</ele>
        <time>2021-07-22T17:10:59Z</time>
      </trkpt>
      <trkpt lat="42.97639" lon="0.64549">
        <ele>462.4487</ele>
        <time>2021-07-22T17:11:10Z</time>
      </trkpt>
      <trkpt lat="42.97808" lon="0.64439">
        <ele>459.8932</ele>
        <time>2021-07-22T17:11:21Z</time>
      </trkpt>
      <trkpt lat="42.9791" lon="0.64224">
        <ele>460.8108</ele>
        <time>2021-07-22T17:11:32Z</time>
      </trkpt>
      <trkpt lat="42.98052" lon="0.64057">
        <ele>462.1437</ele>
        <time>2021-07-22T17:11:43Z</time>
      </trkpt>
      <trkpt lat="42.98222" lon="0.6394">
        <ele>460.2732</ele>
        <time>2021-07-22T17:11:54Z</time>
      </trkpt>
      <trkpt lat="42.98374" lon="0.63786">
        <ele>456.488</ele>
        <time>2021-07-22T17:12:05Z</time>
      </trkpt>
      <trkpt lat="42.98532" lon="0.63652">
        <ele>454.3908</ele>
        <time>2021-07-22T17:12:16Z</time>
      </trkpt>
      <trkpt lat="42.98652" lon="0.63448">
        <ele>452.9912</ele>
        <time>2021-07-22T17:12:27Z</time>
      </trkpt>
      <trkpt lat="42.98779" lon="0.63229">
        <ele>456.1999</ele>
        <time>2021-07-22T17:12:38Z</time>
      </trkpt>
      <trkpt lat="42.98935" lon="0.63067">
        <ele>456.3314</ele>
        <time>2021-07-22T17:12:49Z</time>
      </trkpt>
      <trkpt lat="42.99114" lon="0.63029">
        <ele>455.2527</ele>
        <time>2021-07-22T17:13:00Z</time>
      </trkpt>
      <trkpt lat="42.99283" lon="0.63045">
        <ele>454.9624</ele>
        <time>2021-07-22T17:13:11Z</time>
      </trkpt>
      <trkpt lat="42.99438" lon="0.63091">
        <ele>458.2068</ele>
        <time>2021-07-22T17:13:22Z</time>
      </trkpt>
      <trkpt lat="42.99611" lon="0.63006">
        <ele>455.3389</ele>
        <time>2021-07-22T17:13:33Z</time>
      </trkpt>
      <trkpt lat="42.99803" lon="0.62902">
        <ele>456.3119</ele>
        <time>2021-07-22T17:13:44Z</time>
      </trkpt>
      <trkpt lat="42.99993" lon="0.62791">
        <ele>456.4638</ele>
        <time>2021-07-22T17:13:55Z</time>
      </trkpt>
      <trkpt lat="43.00158" lon="0.62649">
        <ele>455.0274</ele>
        <time>2021-07-22T17:14:06Z</time>
      </trkpt>
      <trkpt lat="43.00298" lon="0.62538">
        <ele>455.3492</ele>
        <time>2021-07-22T17:14:17Z</time>
      </trkpt>
      <trkpt lat="43.00457" lon="0.62462">
        <ele>455.6157</ele>
        <time>2021-07-22T17:14:28Z</time>
      </trkpt>
      <trkpt lat="43.00621" lon="0.6236">
        <ele>455.5649</ele>
        <time>2021-07-22T17:14:39Z</time>
      </trkpt>
      <trkpt lat="43.00773" lon="0.62222">
        <ele>454.1052</ele>
        <time>2021-07-22T17:14:50Z</time>
      </trkpt>
      <trkpt lat="43.00902" lon="0.62038">
        <ele>450.2553</ele>
        <time>2021-07-22T17:15:01Z</time>
      </trkpt>
      <trkpt lat="43.01034" lon="0.61851">
        <ele>450.7388</ele>
        <time>2021-07-22T17:15:12Z</time>
      </trkpt>
      <trkpt lat="43.01192" lon="0.61719">
        <ele>449.4442</ele>
        <time>2021-07-22T17:15:23Z</time>
      </trkpt>
      <trkpt lat="43.01379" lon="0.61677">
        <ele>449.3802</ele>
        <time>2021-07-22T17:15:34Z</time>
      </trkpt>
      <trkpt lat="43.01546" lon="0.61699">
        <ele>446.175</ele>
        <time>2021-07-22T17:15:45Z</time>
      </trkpt>
      <trkpt lat="43.01695" lon="0.61839">
        <ele>447.1679</ele>
        <time>2021-07-22T17:15:56Z</time>
      </trkpt>
      <trkpt lat="43.01836" lon="0.6197">
        <ele>454.6475</ele>
        <time>2021-07-22T17:16:07Z</time>
      </trkpt>
      <trkpt lat="43.01959" lon="0.61912">
        <ele>458.995</ele>
        <time>2021-07-22T17:16:18Z</time>
      </trkpt>
      <trkpt lat="43.02077" lon="0.6176">
        <ele>454.7675</ele>
        <time>2021-07-22T17:16:29Z</time>
      </trkpt>
      <trkpt lat="43.02264" lon="0.61613">
        <ele>442.8914</ele>
        <time>2021-07-22T17:16:40Z</time>
      </trkpt>
      <trkpt lat="43.02432" lon="0.61423">
        <ele>445.2842</ele>
        <time>2021-07-22T17:16:51Z</time>
      </trkpt>
      <trkpt lat="43.02597" lon="0.61247">
        <ele>446.0338</ele>
        <time>2021-07-22T17:17:02Z</time>
      </trkpt>
      <trkpt lat="43.02745" lon="0.61141">
        <ele>445.0088</ele>
        <time>2021-07-22T17:17:13Z</time>
      </trkpt>
      <trkpt lat="43.02826" lon="0.61105">
        <ele>446.7466</ele>
        <time>2021-07-22T17:17:25Z</time>
      </trkpt>
      <trkpt lat="43.02901" lon="0.61029">
        <ele>445.9086</ele>
        <time>2021-07-22T17:17:36Z</time>
      </trkpt>
      <trkpt lat="43.03035" lon="0.60957">
        <ele>444.3767</ele>
        <time>2021-07-22T17:17:47Z</time>
      </trkpt>
      <trkpt lat="43.03225" lon="0.6092">
        <ele>445.8318</ele>
        <time>2021-07-22T17:17:58Z</time>
      </trkpt>
      <trkpt lat="43.03417" lon="0.6088">
        <ele>448.4889</ele>
        <time>2021-07-22T17:18:09Z</time>
      </trkpt>
      <trkpt lat="43.03582" lon="0.60772">
        <ele>457.053</ele>
        <time>2021-07-22T17:18:20Z</time>
      </trkpt>
      <trkpt lat="43.03708" lon="0.60601">
        <ele>459.8134</ele>
        <time>2021-07-22T17:18:31Z</time>
      </trkpt>
      <trkpt lat="43.03791" lon="0.60365">
        <ele>459.3424</ele>
        <time>2021-07-22T17:18:42Z</time>
      </trkpt>
      <trkpt lat="43.03868" lon="0.60107">
        <ele>457.0523</ele>
        <time>2021-07-22T17:18:53Z</time>
      </trkpt>
      <trkpt lat="43.03981" lon="0.5988">
        <ele>457.4326</ele>
        <time>2021-07-22T17:19:04Z</time>
      </trkpt>
      <trkpt lat="43.04113" lon="0.59681">
        <ele>457.0621</ele>
        <time>2021-07-22T17:19:15Z</time>
      </trkpt>
      <trkpt lat="43.0424" lon="0.59512">
        <ele>455.9731</ele>
        <time>2021-07-22T17:19:26Z</time>
      </trkpt>
      <trkpt lat="43.04341" lon="0.59388">
        <ele>457.6998</ele>
        <time>2021-07-22T17:19:37Z</time>
      </trkpt>
      <trkpt lat="43.04448" lon="0.59212">
        <ele>460.2801</ele>
        <time>2021-07-22T17:19:49Z</time>
      </trkpt>
      <trkpt lat="43.04576" lon="0.59123">
        <ele>467.8349</ele>
        <time>2021-07-22T17:20:00Z</time>
      </trkpt>
      <trkpt lat="43.04718" lon="0.59138">
        <ele>472.2729</ele>
        <time>2021-07-22T17:20:11Z</time>
      </trkpt>
      <trkpt lat="43.04873" lon="0.59173">
        <ele>475.448</ele>
        <time>2021-07-22T17:20:22Z</time>
      </trkpt>
      <trkpt lat="43.05046" lon="0.592">
        <ele>473.0248</ele>
        <time>2021-07-22T17:20:33Z</time>
      </trkpt>
      <trkpt lat="43.05252" lon="0.59174">
        <ele>466.9935</ele>
        <time>2021-07-22T17:20:44Z</time>
      </trkpt>
      <trkpt lat="43.05455" lon="0.59151">
        <ele>457.0262</ele>
        <time>2021-07-22T17:20:55Z</time>
      </trkpt>
      <trkpt lat="43.05653" lon="0.59137">
        <ele>447.1226</ele>
        <time>2021-07-22T17:21:06Z</time>
      </trkpt>
      <trkpt lat="43.05816" lon="0.59201">
        <ele>441.1756</ele>
        <time>2021-07-22T17:21:17Z</time>
      </trkpt>
      <trkpt lat="43.05919" lon="0.59268">
        <ele>438.6807</ele>
        <time>2021-07-22T17:21:28Z</time>
      </trkpt>
      <trkpt lat="43.05972" lon="0.59318">
        <ele>438.4035</ele>
        <time>2021-07-22T17:21:39Z</time>
      </trkpt>
      <trkpt lat="43.06064" lon="0.5938">
        <ele>438.3717</ele>
        <time>2021-07-22T17:21:50Z</time>
      </trkpt>
      <trkpt lat="43.06164" lon="0.59542">
        <ele>435.9692</ele>
        <time>2021-07-22T17:22:01Z</time>
      </trkpt>
      <trkpt lat="43.06254" lon="0.59774">
        <ele>434.5816</ele>
        <time>2021-07-22T17:22:12Z</time>
      </trkpt>
      <trkpt lat="43.06357" lon="0.60039">
        <ele>434.4268</ele>
        <time>2021-07-22T17:22:23Z</time>
      </trkpt>
      <trkpt lat="43.06479" lon="0.60354">
        <ele>432.3956</ele>
        <time>2021-07-22T17:22:34Z</time>
      </trkpt>
      <trkpt lat="43.06619" lon="0.60617">
        <ele>432.3423</ele>
        <time>2021-07-22T17:22:45Z</time>
      </trkpt>
      <trkpt lat="43.06811" lon="0.60814">
        <ele>430.8664</ele>
        <time>2021-07-22T17:22:56Z</time>
      </trkpt>
      <trkpt lat="43.07034" lon="0.60925">
        <ele>428.2238</ele>
        <time>2021-07-22T17:23:07Z</time>
      </trkpt>
      <trkpt lat="43.07261" lon="0.60948">
        <ele>426.8314</ele>
        <time>2021-07-22T17:23:18Z</time>
      </trkpt>
      <trkpt lat="43.07486" lon="0.60883">
        <ele>422.9731</ele>
        <time>2021-07-22T17:23:29Z</time>
      </trkpt>
      <trkpt lat="43.07693" lon="0.60735">
        <ele>420.1709</ele>
        <time>2021-07-22T17:23:40Z</time>
      </trkpt>
      <trkpt lat="43.07896" lon="0.60562">
        <ele>419.0707</ele>
        <time>2021-07-22T17:23:51Z</time>
      </trkpt>
      <trkpt lat="43.08105" lon="0.60388">
        <ele>418.3565</ele>
        <time>2021-07-22T17:24:02Z</time>
      </trkpt>
      <trkpt lat="43.08308" lon="0.60215">
        <ele>417.6554</ele>
        <time>2021-07-22T17:24:13Z</time>
      </trkpt>
      <trkpt lat="43.08508" lon="0.60049">
        <ele>417.5562</ele>
        <time>2021-07-22T17:24:24Z</time>
      </trkpt>
      <trkpt lat="43.08719" lon="0.59915">
        <ele>415.3872</ele>
        <time>2021-07-22T17:24:35Z</time>
      </trkpt>
      <trkpt lat="43.08951" lon="0.59827">
        <ele>415.8763</ele>
        <time>2021-07-22T17:24:46Z</time>
      </trkpt>
      <trkpt lat="43.09187" lon="0.59764">
        <ele>415.0406</ele>
        <time>2021-07-22T17:24:57Z</time>
      </trkpt>
      <trkpt lat="43.09425" lon="0.597">
        <ele>415.6624</ele>
        <time>2021-07-22T17:25:08Z</time>
      </trkpt>
      <trkpt lat="43.09658" lon="0.59637">
        <ele>415.6714</ele>
        <time>2021-07-22T17:25:19Z</time>
      </trkpt>
      <trkpt lat="43.09859" lon="0.59584">
        <ele>416.9278</ele>
        <time>2021-07-22T17:25:30Z</time>
      </trkpt>
      <trkpt lat="43.09992" lon="0.59553">
        <ele>418.0076</ele>
        <time>2021-07-22T17:25:41Z</time>
      </trkpt>
      <trkpt lat="43.1001" lon="0.59547">
        <ele>413.9172</ele>
        <time>2021-07-22T17:25:52Z</time>
      </trkpt>
      <trkpt lat="43.10013" lon="0.5955">
        <ele>411.1609</ele>
        <time>2021-07-22T17:26:13Z</time>
      </trkpt>
      <trkpt lat="43.10012" lon="0.59555">
        <ele>410.9645</ele>
        <time>2021-07-22T17:26:24Z</time>
      </trkpt>
      <trkpt lat="43.10017" lon="0.59553">
        <ele>411.2644</ele>
        <time>2021-07-22T17:26:38Z</time>
      </trkpt>
      <trkpt lat="43.10241" lon="0.59484">
        <ele>415.2402</ele>
        <time>2021-07-22T17:26:49Z</time>
      </trkpt>
      <trkpt lat="43.10434" lon="0.59772">
        <ele>410.9435</ele>
        <time>2021-07-22T17:27:00Z</time>
      </trkpt>
      <trkpt lat="43.10536" lon="0.60195">
        <ele>405.7899</ele>
        <time>2021-07-22T17:27:11Z</time>
      </trkpt>
      <trkpt lat="43.10642" lon="0.60613">
        <ele>405.9348</ele>
        <time>2021-07-22T17:27:22Z</time>
      </trkpt>
      <trkpt lat="43.10761" lon="0.6103">
        <ele>405.3303</ele>
        <time>2021-07-22T17:27:33Z</time>
      </trkpt>
      <trkpt lat="43.10884" lon="0.61452">
        <ele>405.0334</ele>
        <time>2021-07-22T17:27:44Z</time>
      </trkpt>
      <trkpt lat="43.10985" lon="0.6184">
        <ele>405.0692</ele>
        <time>2021-07-22T17:27:55Z</time>
      </trkpt>
      <trkpt lat="43.11096" lon="0.62317">
        <ele>402.047</ele>
        <time>2021-07-22T17:28:07Z</time>
      </trkpt>
      <trkpt lat="43.11187" lon="0.62766">
        <ele>400.4231</ele>
        <time>2021-07-22T17:28:18Z</time>
      </trkpt>
      <trkpt lat="43.11274" lon="0.63207">
        <ele>398.3285</ele>
        <time>2021-07-22T17:28:29Z</time>
      </trkpt>
      <trkpt lat="43.11361" lon="0.63652">
        <ele>396.1836</ele>
        <time>2021-07-22T17:28:40Z</time>
      </trkpt>
      <trkpt lat="43.11437" lon="0.64095">
        <ele>395.3863</ele>
        <time>2021-07-22T17:28:51Z</time>
      </trkpt>
      <trkpt lat="43.11488" lon="0.64549">
        <ele>393.9729</ele>
        <time>2021-07-22T17:29:02Z</time>
      </trkpt>
      <trkpt lat="43.11508" lon="0.65006">
        <ele>393.7608</ele>
        <time>2021-07-22T17:29:13Z</time>
      </trkpt>
      <trkpt lat="43.11491" lon="0.65462">
        <ele>391.0995</ele>
        <time>2021-07-22T17:29:24Z</time>
      </trkpt>
      <trkpt lat="43.11466" lon="0.65839">
        <ele>390.8594</ele>
        <time>2021-07-22T17:29:35Z</time>
      </trkpt>
      <trkpt lat="43.11436" lon="0.6621">
        <ele>389.4046</ele>
        <time>2021-07-22T17:29:46Z</time>
      </trkpt>
      <trkpt lat="43.11408" lon="0.66582">
        <ele>388.1361</ele>
        <time>2021-07-22T17:29:57Z</time>
      </trkpt>
      <trkpt lat="43.11395" lon="0.66927">
        <ele>386.242</ele>
        <time>2021-07-22T17:30:08Z</time>
      </trkpt>
      <trkpt lat="43.11409" lon="0.67307">
        <ele>384.2086</ele>
        <time>2021-07-22T17:30:19Z</time>
      </trkpt>
      <trkpt lat="43.11449" lon="0.67692">
        <ele>382.6505</ele>
        <time>2021-07-22T17:30:30Z</time>
      </trkpt>
      <trkpt lat="43.11504" lon="0.68113">
        <ele>382.0157</ele>
        <time>2021-07-22T17:30:41Z</time>
      </trkpt>
      <trkpt lat="43.11553" lon="0.68474">
        <ele>382.3648</ele>
        <time>2021-07-22T17:30:52Z</time>
      </trkpt>
      <trkpt lat="43.11617" lon="0.68846">
        <ele>382.7001</ele>
        <time>2021-07-22T17:31:03Z</time>
      </trkpt>
      <trkpt lat="43.11703" lon="0.69213">
        <ele>382.6829</ele>
        <time>2021-07-22T17:31:14Z</time>
      </trkpt>
      <trkpt lat="43.11808" lon="0.69548">
        <ele>385.6801</ele>
        <time>2021-07-22T17:31:25Z</time>
      </trkpt>
      <trkpt lat="43.11922" lon="0.69885">
        <ele>389.5516</ele>
        <time>2021-07-22T17:31:36Z</time>
      </trkpt>
      <trkpt lat="43.12026" lon="0.70239">
        <ele>391.2312</ele>
        <time>2021-07-22T17:31:47Z</time>
      </trkpt>
      <trkpt lat="43.12105" lon="0.70598">
        <ele>393.75</ele>
        <time>2021-07-22T17:31:58Z</time>
      </trkpt>
      <trkpt lat="43.12167" lon="0.70936">
        <ele>393.3249</ele>
        <time>2021-07-22T17:32:09Z</time>
      </trkpt>
      <trkpt lat="43.12246" lon="0.71308">
        <ele>391.4563</ele>
        <time>2021-07-22T17:32:20Z</time>
      </trkpt>
      <trkpt lat="43.12335" lon="0.71673">
        <ele>388.5218</ele>
        <time>2021-07-22T17:32:31Z</time>
      </trkpt>
      <trkpt lat="43.12419" lon="0.72059">
        <ele>384.3939</ele>
        <time>2021-07-22T17:32:42Z</time>
      </trkpt>
      <trkpt lat="43.12455" lon="0.72446">
        <ele>380.8422</ele>
        <time>2021-07-22T17:32:53Z</time>
      </trkpt>
      <trkpt lat="43.12441" lon="0.72837">
        <ele>376.8908</ele>
        <time>2021-07-22T17:33:04Z</time>
      </trkpt>
      <trkpt lat="43.12381" lon="0.73217">
        <ele>376.024</ele>
        <time>2021-07-22T17:33:15Z</time>
      </trkpt>
      <trkpt lat="43.12329" lon="0.73566">
        <ele>374.3103</ele>
        <time>2021-07-22T17:33:26Z</time>
      </trkpt>
      <trkpt lat="43.12321" lon="0.73958">
        <ele>373.5979</ele>
        <time>2021-07-22T17:33:37Z</time>
      </trkpt>
      <trkpt lat="43.12353" lon="0.74334">
        <ele>372.5264</ele>
        <time>2021-07-22T17:33:48Z</time>
      </trkpt>
      <trkpt lat="43.12415" lon="0.74696">
        <ele>371.6798</ele>
        <time>2021-07-22T17:33:59Z</time>
      </trkpt>
      <trkpt lat="43.12465" lon="0.75068">
        <ele>370.7583</ele>
        <time>2021-07-22T17:34:10Z</time>
      </trkpt>
      <trkpt lat="43.12487" lon="0.75409">
        <ele>369.2423</ele>
        <time>2021-07-22T17:34:21Z</time>
      </trkpt>
      <trkpt lat="43.12503" lon="0.75822">
        <ele>366.8242</ele>
        <time>2021-07-22T17:34:32Z</time>
      </trkpt>
      <trkpt lat="43.12506" lon="0.76202">
        <ele>365.3478</ele>
        <time>2021-07-22T17:34:43Z</time>
      </trkpt>
      <trkpt lat="43.12505" lon="0.76587">
        <ele>363.3159</ele>
        <time>2021-07-22T17:34:54Z</time>
      </trkpt>
      <trkpt lat="43.1251" lon="0.7697">
        <ele>362.5226</ele>
        <time>2021-07-22T17:35:05Z</time>
      </trkpt>
      <trkpt lat="43.12527" lon="0.77359">
        <ele>361.2828</ele>
        <time>2021-07-22T17:35:16Z</time>
      </trkpt>
      <trkpt lat="43.1255" lon="0.7774">
        <ele>359.936</ele>
        <time>2021-07-22T17:35:27Z</time>
      </trkpt>
      <trkpt lat="43.1257" lon="0.78117">
        <ele>359.4653</ele>
        <time>2021-07-22T17:35:38Z</time>
      </trkpt>
      <trkpt lat="43.12579" lon="0.78504">
        <ele>357.3037</ele>
        <time>2021-07-22T17:35:49Z</time>
      </trkpt>
      <trkpt lat="43.12576" lon="0.78896">
        <ele>356.3055</ele>
        <time>2021-07-22T17:36:00Z</time>
      </trkpt>
      <trkpt lat="43.12568" lon="0.79285">
        <ele>355.2564</ele>
        <time>2021-07-22T17:36:11Z</time>
      </trkpt>
      <trkpt lat="43.1256" lon="0.7964">
        <ele>354.0203</ele>
        <time>2021-07-22T17:36:22Z</time>
      </trkpt>
      <trkpt lat="43.12558" lon="0.80025">
        <ele>352.0219</ele>
        <time>2021-07-22T17:36:33Z</time>
      </trkpt>
      <trkpt lat="43.12598" lon="0.80436">
        <ele>351.9321</ele>
        <time>2021-07-22T17:36:44Z</time>
      </trkpt>
      <trkpt lat="43.12667" lon="0.80745">
        <ele>354.6217</ele>
        <time>2021-07-22T17:36:55Z</time>
      </trkpt>
      <trkpt lat="43.12768" lon="0.8109">
        <ele>358.8453</ele>
        <time>2021-07-22T17:37:06Z</time>
      </trkpt>
      <trkpt lat="43.12871" lon="0.81417">
        <ele>374.2622</ele>
        <time>2021-07-22T17:37:17Z</time>
      </trkpt>
      <trkpt lat="43.12986" lon="0.81773">
        <ele>379.0075</ele>
        <time>2021-07-22T17:37:28Z</time>
      </trkpt>
      <trkpt lat="43.13105" lon="0.8214">
        <ele>377.5034</ele>
        <time>2021-07-22T17:37:39Z</time>
      </trkpt>
      <trkpt lat="43.1322" lon="0.82496">
        <ele>365.1442</ele>
        <time>2021-07-22T17:37:50Z</time>
      </trkpt>
      <trkpt lat="43.13313" lon="0.82853">
        <ele>353.9022</ele>
        <time>2021-07-22T17:38:01Z</time>
      </trkpt>
      <trkpt lat="43.13346" lon="0.83244">
        <ele>345.3712</ele>
        <time>2021-07-22T17:38:12Z</time>
      </trkpt>
      <trkpt lat="43.13307" lon="0.8365">
        <ele>343.1697</ele>
        <time>2021-07-22T17:38:23Z</time>
      </trkpt>
      <trkpt lat="43.13241" lon="0.83973">
        <ele>342.2314</ele>
        <time>2021-07-22T17:38:34Z</time>
      </trkpt>
      <trkpt lat="43.13164" lon="0.84373">
        <ele>341.2033</ele>
        <time>2021-07-22T17:38:45Z</time>
      </trkpt>
      <trkpt lat="43.13091" lon="0.84749">
        <ele>339.5663</ele>
        <time>2021-07-22T17:38:56Z</time>
      </trkpt>
      <trkpt lat="43.13009" lon="0.85121">
        <ele>337.8798</ele>
        <time>2021-07-22T17:39:07Z</time>
      </trkpt>
      <trkpt lat="43.12916" lon="0.85494">
        <ele>337.0681</ele>
        <time>2021-07-22T17:39:18Z</time>
      </trkpt>
      <trkpt lat="43.12814" lon="0.85866">
        <ele>336.7633</ele>
        <time>2021-07-22T17:39:29Z</time>
      </trkpt>
      <trkpt lat="43.12714" lon="0.86235">
        <ele>335.099</ele>
        <time>2021-07-22T17:39:40Z</time>
      </trkpt>
      <trkpt lat="43.12616" lon="0.86599">
        <ele>332.5171</ele>
        <time>2021-07-22T17:39:51Z</time>
      </trkpt>
      <trkpt lat="43.12524" lon="0.86955">
        <ele>330.9911</ele>
        <time>2021-07-22T17:40:02Z</time>
      </trkpt>
      <trkpt lat="43.12465" lon="0.87327">
        <ele>330.7403</ele>
        <time>2021-07-22T17:40:13Z</time>
      </trkpt>
      <trkpt lat="43.12449" lon="0.87701">
        <ele>326.871</ele>
        <time>2021-07-22T17:40:24Z</time>
      </trkpt>
      <trkpt lat="43.12452" lon="0.88043">
        <ele>324.0525</ele>
        <time>2021-07-22T17:40:35Z</time>
      </trkpt>
      <trkpt lat="43.12434" lon="0.88421">
        <ele>321.3701</ele>
        <time>2021-07-22T17:40:46Z</time>
      </trkpt>
      <trkpt lat="43.12373" lon="0.88776">
        <ele>319.9178</ele>
        <time>2021-07-22T17:40:57Z</time>
      </trkpt>
      <trkpt lat="43.1226" lon="0.89127">
        <ele>318.517</ele>
        <time>2021-07-22T17:41:08Z</time>
      </trkpt>
      <trkpt lat="43.12127" lon="0.89357">
        <ele>315.3824</ele>
        <time>2021-07-22T17:41:19Z</time>
      </trkpt>
      <trkpt lat="43.12043" lon="0.89506">
        <ele>312.4092</ele>
        <time>2021-07-22T17:41:30Z</time>
      </trkpt>
      <trkpt lat="43.12027" lon="0.8954">
        <ele>312.5619</ele>
        <time>2021-07-22T17:41:41Z</time>
      </trkpt>
      <trkpt lat="43.1203" lon="0.89542">
        <ele>312.856</ele>
        <time>2021-07-22T17:42:32Z</time>
      </trkpt>
      <trkpt lat="43.12026" lon="0.89544">
        <ele>313.1941</ele>
        <time>2021-07-22T17:42:43Z</time>
      </trkpt>
      <trkpt lat="43.12023" lon="0.89547">
        <ele>313.253</ele>
        <time>2021-07-22T17:42:56Z</time>
      </trkpt>
      <trkpt lat="43.12021" lon="0.89555">
        <ele>311.4459</ele>
        <time>2021-07-22T17:43:22Z</time>
      </trkpt>
      <trkpt lat="43.11916" lon="0.89808">
        <ele>313.2884</ele>
        <time>2021-07-22T17:43:33Z</time>
      </trkpt>
      <trkpt lat="43.11762" lon="0.90214">
        <ele>314.4655</ele>
        <time>2021-07-22T17:43:44Z</time>
      </trkpt>
      <trkpt lat="43.11658" lon="0.90669">
        <ele>313.7047</ele>
        <time>2021-07-22T17:43:55Z</time>
      </trkpt>
      <trkpt lat="43.11601" lon="0.91189">
        <ele>306.8103</ele>
        <time>2021-07-22T17:44:06Z</time>
      </trkpt>
      <trkpt lat="43.11657" lon="0.91673">
        <ele>303.9498</ele>
        <time>2021-07-22T17:44:17Z</time>
      </trkpt>
      <trkpt lat="43.11825" lon="0.92114">
        <ele>298.3719</ele>
        <time>2021-07-22T17:44:28Z</time>
      </trkpt>
      <trkpt lat="43.12048" lon="0.92493">
        <ele>298.5261</ele>
        <time>2021-07-22T17:44:39Z</time>
      </trkpt>
      <trkpt lat="43.12252" lon="0.9284">
        <ele>298.8789</ele>
        <time>2021-07-22T17:44:50Z</time>
      </trkpt>
      <trkpt lat="43.12458" lon="0.93243">
        <ele>298.295</ele>
        <time>2021-07-22T17:45:01Z</time>
      </trkpt>
      <trkpt lat="43.12626" lon="0.93671">
        <ele>299.4563</ele>
        <time>2021-07-22T17:45:12Z</time>
      </trkpt>
      <trkpt lat="43.12811" lon="0.94114">
        <ele>298.3006</ele>
        <time>2021-07-22T17:45:23Z</time>
      </trkpt>
      <trkpt lat="43.12999" lon="0.94496">
        <ele>296.6726</ele>
        <time>2021-07-22T17:45:34Z</time>
      </trkpt>
      <trkpt lat="43.13221" lon="0.94858">
        <ele>295.4613</ele>
        <time>2021-07-22T17:45:45Z</time>
      </trkpt>
      <trkpt lat="43.13467" lon="0.95192">
        <ele>293.6922</ele>
        <time>2021-07-22T17:45:56Z</time>
      </trkpt>
      <trkpt lat="43.13733" lon="0.95488">
        <ele>293.4887</ele>
        <time>2021-07-22T17:46:07Z</time>
      </trkpt>
      <trkpt lat="43.13983" lon="0.9572">
        <ele>293.3441</ele>
        <time>2021-07-22T17:46:18Z</time>
      </trkpt>
      <trkpt lat="43.14233" lon="0.95912">
        <ele>293.36</ele>
        <time>2021-07-22T17:46:29Z</time>
      </trkpt>
      <trkpt lat="43.14503" lon="0.96084">
        <ele>290.9574</ele>
        <time>2021-07-22T17:46:40Z</time>
      </trkpt>
      <trkpt lat="43.1476" lon="0.96214">
        <ele>287.4098</ele>
        <time>2021-07-22T17:46:51Z</time>
      </trkpt>
      <trkpt lat="43.15047" lon="0.96342">
        <ele>283.1204</ele>
        <time>2021-07-22T17:47:02Z</time>
      </trkpt>
      <trkpt lat="43.15355" lon="0.96476">
        <ele>278.993</ele>
        <time>2021-07-22T17:47:13Z</time>
      </trkpt>
      <trkpt lat="43.15645" lon="0.96602">
        <ele>274.8755</ele>
        <time>2021-07-22T17:47:24Z</time>
      </trkpt>
      <trkpt lat="43.15927" lon="0.96725">
        <ele>274.7611</ele>
        <time>2021-07-22T17:47:35Z</time>
      </trkpt>
      <trkpt lat="43.16195" lon="0.96899">
        <ele>272.6506</ele>
        <time>2021-07-22T17:47:46Z</time>
      </trkpt>
      <trkpt lat="43.1645" lon="0.97115">
        <ele>271.1776</ele>
        <time>2021-07-22T17:47:57Z</time>
      </trkpt>
      <trkpt lat="43.16732" lon="0.97244">
        <ele>271.2663</ele>
        <time>2021-07-22T17:48:08Z</time>
      </trkpt>
      <trkpt lat="43.17021" lon="0.97327">
        <ele>270.7509</ele>
        <time>2021-07-22T17:48:19Z</time>
      </trkpt>
      <trkpt lat="43.17284" lon="0.97506">
        <ele>272.7081</ele>
        <time>2021-07-22T17:48:30Z</time>
      </trkpt>
      <trkpt lat="43.17526" lon="0.97719">
        <ele>272.9365</ele>
        <time>2021-07-22T17:48:41Z</time>
      </trkpt>
      <trkpt lat="43.178" lon="0.97875">
        <ele>273.0006</ele>
        <time>2021-07-22T17:48:52Z</time>
      </trkpt>
      <trkpt lat="43.18061" lon="0.97939">
        <ele>270.7022</ele>
        <time>2021-07-22T17:49:03Z</time>
      </trkpt>
      <trkpt lat="43.1835" lon="0.97983">
        <ele>270.7641</ele>
        <time>2021-07-22T17:49:14Z</time>
      </trkpt>
      <trkpt lat="43.1864" lon="0.98056">
        <ele>268.5773</ele>
        <time>2021-07-22T17:49:25Z</time>
      </trkpt>
      <trkpt lat="43.18891" lon="0.98233">
        <ele>274.9672</ele>
        <time>2021-07-22T17:49:36Z</time>
      </trkpt>
      <trkpt lat="43.19131" lon="0.98507">
        <ele>278.8112</ele>
        <time>2021-07-22T17:49:47Z</time>
      </trkpt>
      <trkpt lat="43.19307" lon="0.98826">
        <ele>277.6963</ele>
        <time>2021-07-22T17:49:58Z</time>
      </trkpt>
      <trkpt lat="43.19471" lon="0.99173">
        <ele>275.1544</ele>
        <time>2021-07-22T17:50:09Z</time>
      </trkpt>
      <trkpt lat="43.19635" lon="0.99519">
        <ele>273.1954</ele>
        <time>2021-07-22T17:50:20Z</time>
      </trkpt>
      <trkpt lat="43.198" lon="0.99877">
        <ele>271.8996</ele>
        <time>2021-07-22T17:50:31Z</time>
      </trkpt>
      <trkpt lat="43.19964" lon="1.00224">
        <ele>271.178</ele>
        <time>2021-07-22T17:50:42Z</time>
      </trkpt>
      <trkpt lat="43.20128" lon="1.00575">
        <ele>269.9013</ele>
        <time>2021-07-22T17:50:53Z</time>
      </trkpt>
      <trkpt lat="43.20279" lon="1.00896">
        <ele>268.3043</ele>
        <time>2021-07-22T17:51:04Z</time>
      </trkpt>
      <trkpt lat="43.20461" lon="1.01281">
        <ele>265.5512</ele>
        <time>2021-07-22T17:51:15Z</time>
      </trkpt>
      <trkpt lat="43.20624" lon="1.0164">
        <ele>265.1379</ele>
        <time>2021-07-22T17:51:26Z</time>
      </trkpt>
      <trkpt lat="43.20728" lon="1.02029">
        <ele>264.1184</ele>
        <time>2021-07-22T17:51:37Z</time>
      </trkpt>
      <trkpt lat="43.20803" lon="1.0243">
        <ele>264.9825</ele>
        <time>2021-07-22T17:51:48Z</time>
      </trkpt>
      <trkpt lat="43.20938" lon="1.02799">
        <ele>263.9953</ele>
        <time>2021-07-22T17:51:59Z</time>
      </trkpt>
      <trkpt lat="43.21123" lon="1.03127">
        <ele>263.8586</ele>
        <time>2021-07-22T17:52:10Z</time>
      </trkpt>
      <trkpt lat="43.21313" lon="1.03451">
        <ele>262.5937</ele>
        <time>2021-07-22T17:52:21Z</time>
      </trkpt>
      <trkpt lat="43.21501" lon="1.03776">
        <ele>262.087</ele>
        <time>2021-07-22T17:52:32Z</time>
      </trkpt>
      <trkpt lat="43.21692" lon="1.04101">
        <ele>262.4125</ele>
        <time>2021-07-22T17:52:43Z</time>
      </trkpt>
      <trkpt lat="43.21881" lon="1.04425">
        <ele>262.2862</ele>
        <time>2021-07-22T17:52:54Z</time>
      </trkpt>
      <trkpt lat="43.22075" lon="1.04758">
        <ele>261.7361</ele>
        <time>2021-07-22T17:53:05Z</time>
      </trkpt>
      <trkpt lat="43.22248" lon="1.05053">
        <ele>259.806</ele>
        <time>2021-07-22T17:53:16Z</time>
      </trkpt>
      <trkpt lat="43.22454" lon="1.05406">
        <ele>259.3529</ele>
        <time>2021-07-22T17:53:27Z</time>
      </trkpt>
      <trkpt lat="43.22645" lon="1.05733">
        <ele>265.147</ele>
        <time>2021-07-22T17:53:38Z</time>
      </trkpt>
      <trkpt lat="43.22836" lon="1.06059">
        <ele>264.2554</ele>
        <time>2021-07-22T17:53:49Z</time>
      </trkpt>
      <trkpt lat="43.23023" lon="1.06377">
        <ele>263.1407</ele>
        <time>2021-07-22T17:54:00Z</time>
      </trkpt>
      <trkpt lat="43.23215" lon="1.06707">
        <ele>262.6494</ele>
        <time>2021-07-22T17:54:11Z</time>
      </trkpt>
      <trkpt lat="43.2341" lon="1.0704">
        <ele>260.1813</ele>
        <time>2021-07-22T17:54:22Z</time>
      </trkpt>
      <trkpt lat="43.23604" lon="1.07372">
        <ele>257.4205</ele>
        <time>2021-07-22T17:54:33Z</time>
      </trkpt>
      <trkpt lat="43.238" lon="1.07706">
        <ele>257.2678</ele>
        <time>2021-07-22T17:54:44Z</time>
      </trkpt>
      <trkpt lat="43.23998" lon="1.08047">
        <ele>255.042</ele>
        <time>2021-07-22T17:54:55Z</time>
      </trkpt>
      <trkpt lat="43.24195" lon="1.08387">
        <ele>254.0278</ele>
        <time>2021-07-22T17:55:06Z</time>
      </trkpt>
      <trkpt lat="43.24374" lon="1.08694">
        <ele>252.6873</ele>
        <time>2021-07-22T17:55:17Z</time>
      </trkpt>
      <trkpt lat="43.24586" lon="1.09056">
        <ele>253.4008</ele>
        <time>2021-07-22T17:55:28Z</time>
      </trkpt>
      <trkpt lat="43.24766" lon="1.09364">
        <ele>251.4797</ele>
        <time>2021-07-22T17:55:39Z</time>
      </trkpt>
      <trkpt lat="43.24962" lon="1.09701">
        <ele>250.987</ele>
        <time>2021-07-22T17:55:50Z</time>
      </trkpt>
      <trkpt lat="43.25157" lon="1.10032">
        <ele>250.9309</ele>
        <time>2021-07-22T17:56:01Z</time>
      </trkpt>
      <trkpt lat="43.25367" lon="1.10396">
        <ele>250.5116</ele>
        <time>2021-07-22T17:56:12Z</time>
      </trkpt>
      <trkpt lat="43.25563" lon="1.1073">
        <ele>248.8432</ele>
        <time>2021-07-22T17:56:23Z</time>
      </trkpt>
      <trkpt lat="43.2576" lon="1.11069">
        <ele>247.6415</ele>
        <time>2021-07-22T17:56:34Z</time>
      </trkpt>
      <trkpt lat="43.25956" lon="1.11406">
        <ele>247.2846</ele>
        <time>2021-07-22T17:56:45Z</time>
      </trkpt>
      <trkpt lat="43.26149" lon="1.11738">
        <ele>246.2118</ele>
        <time>2021-07-22T17:56:56Z</time>
      </trkpt>
      <trkpt lat="43.26347" lon="1.12069">
        <ele>244.2447</ele>
        <time>2021-07-22T17:57:07Z</time>
      </trkpt>
      <trkpt lat="43.26542" lon="1.12411">
        <ele>242.8491</ele>
        <time>2021-07-22T17:57:19Z</time>
      </trkpt>
      <trkpt lat="43.26736" lon="1.12744">
        <ele>241.227</ele>
        <time>2021-07-22T17:57:30Z</time>
      </trkpt>
      <trkpt lat="43.26948" lon="1.1311">
        <ele>242.4914</ele>
        <time>2021-07-22T17:57:41Z</time>
      </trkpt>
      <trkpt lat="43.27146" lon="1.13442">
        <ele>238.8381</ele>
        <time>2021-07-22T17:57:52Z</time>
      </trkpt>
      <trkpt lat="43.27345" lon="1.13786">
        <ele>233.3267</ele>
        <time>2021-07-22T17:58:03Z</time>
      </trkpt>
      <trkpt lat="43.27549" lon="1.14126">
        <ele>233.0826</ele>
        <time>2021-07-22T17:58:14Z</time>
      </trkpt>
      <trkpt lat="43.27749" lon="1.14481">
        <ele>229.9703</ele>
        <time>2021-07-22T17:58:25Z</time>
      </trkpt>
      <trkpt lat="43.27958" lon="1.14838">
        <ele>228.2798</ele>
        <time>2021-07-22T17:58:36Z</time>
      </trkpt>
      <trkpt lat="43.28167" lon="1.15196">
        <ele>226.3291</ele>
        <time>2021-07-22T17:58:47Z</time>
      </trkpt>
      <trkpt lat="43.28368" lon="1.1556">
        <ele>224.6869</ele>
        <time>2021-07-22T17:58:58Z</time>
      </trkpt>
      <trkpt lat="43.28573" lon="1.15914">
        <ele>224.5115</ele>
        <time>2021-07-22T17:59:09Z</time>
      </trkpt>
      <trkpt lat="43.28772" lon="1.1626">
        <ele>225.3118</ele>
        <time>2021-07-22T17:59:20Z</time>
      </trkpt>
      <trkpt lat="43.28956" lon="1.16577">
        <ele>224.444</ele>
        <time>2021-07-22T17:59:31Z</time>
      </trkpt>
      <trkpt lat="43.29155" lon="1.16917">
        <ele>223.8524</ele>
        <time>2021-07-22T17:59:42Z</time>
      </trkpt>
      <trkpt lat="43.29375" lon="1.17281">
        <ele>222.4358</ele>
        <time>2021-07-22T17:59:53Z</time>
      </trkpt>
      <trkpt lat="43.29582" lon="1.17624">
        <ele>220.579</ele>
        <time>2021-07-22T18:00:04Z</time>
      </trkpt>
      <trkpt lat="43.29783" lon="1.17968">
        <ele>219.061</ele>
        <time>2021-07-22T18:00:15Z</time>
      </trkpt>
      <trkpt lat="43.29988" lon="1.1832">
        <ele>218.7976</ele>
        <time>2021-07-22T18:00:26Z</time>
      </trkpt>
      <trkpt lat="43.30188" lon="1.1867">
        <ele>217.5892</ele>
        <time>2021-07-22T18:00:37Z</time>
      </trkpt>
      <trkpt lat="43.3039" lon="1.19015">
        <ele>216.1063</ele>
        <time>2021-07-22T18:00:48Z</time>
      </trkpt>
      <trkpt lat="43.30571" lon="1.19312">
        <ele>217.1781</ele>
        <time>2021-07-22T18:00:59Z</time>
      </trkpt>
      <trkpt lat="43.30796" lon="1.19713">
        <ele>214.6147</ele>
        <time>2021-07-22T18:01:10Z</time>
      </trkpt>
      <trkpt lat="43.31001" lon="1.20064">
        <ele>212.8151</ele>
        <time>2021-07-22T18:01:21Z</time>
      </trkpt>
      <trkpt lat="43.31188" lon="1.20387">
        <ele>211.3382</ele>
        <time>2021-07-22T18:01:32Z</time>
      </trkpt>
      <trkpt lat="43.31392" lon="1.20739">
        <ele>211.516</ele>
        <time>2021-07-22T18:01:43Z</time>
      </trkpt>
      <trkpt lat="43.31601" lon="1.21097">
        <ele>211.4889</ele>
        <time>2021-07-22T18:01:54Z</time>
      </trkpt>
      <trkpt lat="43.31808" lon="1.21453">
        <ele>211.37</ele>
        <time>2021-07-22T18:02:05Z</time>
      </trkpt>
      <trkpt lat="43.3203" lon="1.21836">
        <ele>209.6747</ele>
        <time>2021-07-22T18:02:16Z</time>
      </trkpt>
      <trkpt lat="43.3223" lon="1.22179">
        <ele>207.734</ele>
        <time>2021-07-22T18:02:27Z</time>
      </trkpt>
      <trkpt lat="43.32433" lon="1.22534">
        <ele>207.7657</ele>
        <time>2021-07-22T18:02:38Z</time>
      </trkpt>
      <trkpt lat="43.3264" lon="1.22892">
        <ele>205.4496</ele>
        <time>2021-07-22T18:02:49Z</time>
      </trkpt>
      <trkpt lat="43.32848" lon="1.23246">
        <ele>206.012</ele>
        <time>2021-07-22T18:03:00Z</time>
      </trkpt>
      <trkpt lat="43.33034" lon="1.23562">
        <ele>204.9097</ele>
        <time>2021-07-22T18:03:11Z</time>
      </trkpt>
      <trkpt lat="43.33206" lon="1.23857">
        <ele>210.8585</ele>
        <time>2021-07-22T18:03:22Z</time>
      </trkpt>
      <trkpt lat="43.3338" lon="1.24158">
        <ele>203.9188</ele>
        <time>2021-07-22T18:03:33Z</time>
      </trkpt>
      <trkpt lat="43.33546" lon="1.24464">
        <ele>201.1676</ele>
        <time>2021-07-22T18:03:44Z</time>
      </trkpt>
      <trkpt lat="43.33768" lon="1.24849">
        <ele>199.4</ele>
        <time>2021-07-22T18:03:55Z</time>
      </trkpt>
      <trkpt lat="43.33977" lon="1.2521">
        <ele>198.4705</ele>
        <time>2021-07-22T18:04:06Z</time>
      </trkpt>
      <trkpt lat="43.34198" lon="1.25584">
        <ele>198.6745</ele>
        <time>2021-07-22T18:04:17Z</time>
      </trkpt>
      <trkpt lat="43.34416" lon="1.25956">
        <ele>198.3481</ele>
        <time>2021-07-22T18:04:28Z</time>
      </trkpt>
      <trkpt lat="43.34635" lon="1.26316">
        <ele>196.3669</ele>
        <time>2021-07-22T18:04:39Z</time>
      </trkpt>
      <trkpt lat="43.34906" lon="1.26602">
        <ele>195.3618</ele>
        <time>2021-07-22T18:04:50Z</time>
      </trkpt>
      <trkpt lat="43.35212" lon="1.26782">
        <ele>195.1149</ele>
        <time>2021-07-22T18:05:01Z</time>
      </trkpt>
      <trkpt lat="43.35536" lon="1.26907">
        <ele>191.174</ele>
        <time>2021-07-22T18:05:12Z</time>
      </trkpt>
      <trkpt lat="43.35885" lon="1.27043">
        <ele>198.7281</ele>
        <time>2021-07-22T18:05:23Z</time>
      </trkpt>
      <trkpt lat="43.36223" lon="1.27175">
        <ele>197.934</ele>
        <time>2021-07-22T18:05:34Z</time>
      </trkpt>
      <trkpt lat="43.36562" lon="1.2732">
        <ele>194.4584</ele>
        <time>2021-07-22T18:05:45Z</time>
      </trkpt>
      <trkpt lat="43.36892" lon="1.27481">
        <ele>192.3509</ele>
        <time>2021-07-22T18:05:56Z</time>
      </trkpt>
      <trkpt lat="43.37216" lon="1.27653">
        <ele>191.4652</ele>
        <time>2021-07-22T18:06:07Z</time>
      </trkpt>
      <trkpt lat="43.37539" lon="1.27823">
        <ele>189.5885</ele>
        <time>2021-07-22T18:06:18Z</time>
      </trkpt>
      <trkpt lat="43.37863" lon="1.27979">
        <ele>188.4587</ele>
        <time>2021-07-22T18:06:29Z</time>
      </trkpt>
      <trkpt lat="43.38192" lon="1.28137">
        <ele>188.381</ele>
        <time>2021-07-22T18:06:40Z</time>
      </trkpt>
      <trkpt lat="43.38515" lon="1.28296">
        <ele>186.6467</ele>
        <time>2021-07-22T18:06:51Z</time>
      </trkpt>
      <trkpt lat="43.38841" lon="1.28453">
        <ele>185.9455</ele>
        <time>2021-07-22T18:07:02Z</time>
      </trkpt>
      <trkpt lat="43.39168" lon="1.28611">
        <ele>186.478</ele>
        <time>2021-07-22T18:07:13Z</time>
      </trkpt>
      <trkpt lat="43.39498" lon="1.28758">
        <ele>187.0449</ele>
        <time>2021-07-22T18:07:24Z</time>
      </trkpt>
      <trkpt lat="43.39826" lon="1.28905">
        <ele>185.5389</ele>
        <time>2021-07-22T18:07:35Z</time>
      </trkpt>
      <trkpt lat="43.40146" lon="1.29066">
        <ele>186.4717</ele>
        <time>2021-07-22T18:07:46Z</time>
      </trkpt>
      <trkpt lat="43.40472" lon="1.29221">
        <ele>184.6156</ele>
        <time>2021-07-22T18:07:57Z</time>
      </trkpt>
      <trkpt lat="43.40799" lon="1.29378">
        <ele>184.1644</ele>
        <time>2021-07-22T18:08:08Z</time>
      </trkpt>
      <trkpt lat="43.41118" lon="1.29549">
        <ele>183.4964</ele>
        <time>2021-07-22T18:08:19Z</time>
      </trkpt>
      <trkpt lat="43.41426" lon="1.29753">
        <ele>180.924</ele>
        <time>2021-07-22T18:08:30Z</time>
      </trkpt>
      <trkpt lat="43.41736" lon="1.29936">
        <ele>179.3463</ele>
        <time>2021-07-22T18:08:41Z</time>
      </trkpt>
      <trkpt lat="43.42049" lon="1.30123">
        <ele>179.8232</ele>
        <time>2021-07-22T18:08:52Z</time>
      </trkpt>
      <trkpt lat="43.42363" lon="1.30316">
        <ele>177.178</ele>
        <time>2021-07-22T18:09:03Z</time>
      </trkpt>
      <trkpt lat="43.42681" lon="1.30509">
        <ele>176.5803</ele>
        <time>2021-07-22T18:09:14Z</time>
      </trkpt>
      <trkpt lat="43.42995" lon="1.30702">
        <ele>174.6747</ele>
        <time>2021-07-22T18:09:25Z</time>
      </trkpt>
      <trkpt lat="43.433" lon="1.30886">
        <ele>174.9263</ele>
        <time>2021-07-22T18:09:36Z</time>
      </trkpt>
      <trkpt lat="43.43602" lon="1.30966">
        <ele>175.6851</ele>
        <time>2021-07-22T18:09:47Z</time>
      </trkpt>
      <trkpt lat="43.43914" lon="1.30909">
        <ele>176.1984</ele>
        <time>2021-07-22T18:09:58Z</time>
      </trkpt>
      <trkpt lat="43.44231" lon="1.30817">
        <ele>183.7684</ele>
        <time>2021-07-22T18:10:09Z</time>
      </trkpt>
      <trkpt lat="43.44566" lon="1.30723">
        <ele>181.4815</ele>
        <time>2021-07-22T18:10:20Z</time>
      </trkpt>
      <trkpt lat="43.44896" lon="1.30635">
        <ele>177.1057</ele>
        <time>2021-07-22T18:10:31Z</time>
      </trkpt>
      <trkpt lat="43.4523" lon="1.30552">
        <ele>177.3422</ele>
        <time>2021-07-22T18:10:42Z</time>
      </trkpt>
      <trkpt lat="43.45563" lon="1.30622">
        <ele>174.835</ele>
        <time>2021-07-22T18:10:53Z</time>
      </trkpt>
      <trkpt lat="43.4583" lon="1.30864">
        <ele>169.0777</ele>
        <time>2021-07-22T18:11:04Z</time>
      </trkpt>
      <trkpt lat="43.46104" lon="1.31123">
        <ele>169.3324</ele>
        <time>2021-07-22T18:11:15Z</time>
      </trkpt>
      <trkpt lat="43.46404" lon="1.31335">
        <ele>170.5686</ele>
        <time>2021-07-22T18:11:26Z</time>
      </trkpt>
      <trkpt lat="43.4671" lon="1.31511">
        <ele>168.8465</ele>
        <time>2021-07-22T18:11:37Z</time>
      </trkpt>
      <trkpt lat="43.47011" lon="1.31687">
        <ele>169.2346</ele>
        <time>2021-07-22T18:11:48Z</time>
      </trkpt>
      <trkpt lat="43.47319" lon="1.31869">
        <ele>169.8919</ele>
        <time>2021-07-22T18:11:59Z</time>
      </trkpt>
      <trkpt lat="43.47589" lon="1.32064">
        <ele>167.8656</ele>
        <time>2021-07-22T18:12:10Z</time>
      </trkpt>
      <trkpt lat="43.47852" lon="1.32341">
        <ele>166.9007</ele>
        <time>2021-07-22T18:12:21Z</time>
      </trkpt>
      <trkpt lat="43.4815" lon="1.32624">
        <ele>166.2237</ele>
        <time>2021-07-22T18:12:32Z</time>
      </trkpt>
      <trkpt lat="43.48457" lon="1.32811">
        <ele>163.8384</ele>
        <time>2021-07-22T18:12:43Z</time>
      </trkpt>
      <trkpt lat="43.48772" lon="1.32984">
        <ele>162.6953</ele>
        <time>2021-07-22T18:12:54Z</time>
      </trkpt>
      <trkpt lat="43.49081" lon="1.33166">
        <ele>163.4361</ele>
        <time>2021-07-22T18:13:05Z</time>
      </trkpt>
      <trkpt lat="43.49373" lon="1.33393">
        <ele>161.8994</ele>
        <time>2021-07-22T18:13:16Z</time>
      </trkpt>
      <trkpt lat="43.49634" lon="1.33659">
        <ele>161.0752</ele>
        <time>2021-07-22T18:13:27Z</time>
      </trkpt>
      <trkpt lat="43.49873" lon="1.33965">
        <ele>159.9966</ele>
        <time>2021-07-22T18:13:38Z</time>
      </trkpt>
      <trkpt lat="43.50084" lon="1.34322">
        <ele>160.8555</ele>
        <time>2021-07-22T18:13:49Z</time>
      </trkpt>
      <trkpt lat="43.50263" lon="1.34668">
        <ele>161.9199</ele>
        <time>2021-07-22T18:14:00Z</time>
      </trkpt>
      <trkpt lat="43.50409" lon="1.34963">
        <ele>160.5644</ele>
        <time>2021-07-22T18:14:11Z</time>
      </trkpt>
      <trkpt lat="43.50505" lon="1.35195">
        <ele>161.6888</ele>
        <time>2021-07-22T18:14:22Z</time>
      </trkpt>
      <trkpt lat="43.50524" lon="1.35234">
        <ele>165.2023</ele>
        <time>2021-07-22T18:14:33Z</time>
      </trkpt>
      <trkpt lat="43.5052" lon="1.35234">
        <ele>168.0228</ele>
        <time>2021-07-22T18:14:44Z</time>
      </trkpt>
      <trkpt lat="43.50574" lon="1.35332">
        <ele>159.0341</ele>
        <time>2021-07-22T18:14:55Z</time>
      </trkpt>
      <trkpt lat="43.50577" lon="1.35337">
        <ele>160.5011</ele>
        <time>2021-07-22T18:15:06Z</time>
      </trkpt>
      <trkpt lat="43.50576" lon="1.35336">
        <ele>157.4331</ele>
        <time>2021-07-22T18:16:05Z</time>
      </trkpt>
      <trkpt lat="43.50581" lon="1.35346">
        <ele>159.7707</ele>
        <time>2021-07-22T18:16:18Z</time>
      </trkpt>
      <trkpt lat="43.50736" lon="1.35585">
        <ele>158.0175</ele>
        <time>2021-07-22T18:16:29Z</time>
      </trkpt>
      <trkpt lat="43.50911" lon="1.35922">
        <ele>157.9839</ele>
        <time>2021-07-22T18:16:40Z</time>
      </trkpt>
      <trkpt lat="43.51098" lon="1.36286">
        <ele>159.1922</ele>
        <time>2021-07-22T18:16:51Z</time>
      </trkpt>
      <trkpt lat="43.51289" lon="1.36652">
        <ele>159.3023</ele>
        <time>2021-07-22T18:17:02Z</time>
      </trkpt>
      <trkpt lat="43.51487" lon="1.37002">
        <ele>157.4119</ele>
        <time>2021-07-22T18:17:13Z</time>
      </trkpt>
      <trkpt lat="43.51706" lon="1.37334">
        <ele>157.3065</ele>
        <time>2021-07-22T18:17:24Z</time>
      </trkpt>
      <trkpt lat="43.5195" lon="1.37635">
        <ele>154.6668</ele>
        <time>2021-07-22T18:17:35Z</time>
      </trkpt>
      <trkpt lat="43.52212" lon="1.37907">
        <ele>154.3979</ele>
        <time>2021-07-22T18:17:46Z</time>
      </trkpt>
      <trkpt lat="43.52485" lon="1.38151">
        <ele>152.8386</ele>
        <time>2021-07-22T18:17:57Z</time>
      </trkpt>
      <trkpt lat="43.52732" lon="1.38375">
        <ele>152.7234</ele>
        <time>2021-07-22T18:18:08Z</time>
      </trkpt>
      <trkpt lat="43.52965" lon="1.38603">
        <ele>153.6275</ele>
        <time>2021-07-22T18:18:19Z</time>
      </trkpt>
      <trkpt lat="43.53196" lon="1.38843">
        <ele>155.387</ele>
        <time>2021-07-22T18:18:30Z</time>
      </trkpt>
      <trkpt lat="43.53437" lon="1.39067">
        <ele>154.2588</ele>
        <time>2021-07-22T18:18:41Z</time>
      </trkpt>
      <trkpt lat="43.53497" lon="1.39316">
        <ele>158.7993</ele>
        <time>2021-07-22T18:18:52Z</time>
      </trkpt>
      <trkpt lat="43.5354" lon="1.39373">
        <ele>158.3086</ele>
        <time>2021-07-22T18:19:03Z</time>
      </trkpt>
      <trkpt lat="43.53496" lon="1.3947">
        <ele>158.8485</ele>
        <time>2021-07-22T18:19:14Z</time>
      </trkpt>
      <trkpt lat="43.53409" lon="1.39644">
        <ele>155.8014</ele>
        <time>2021-07-22T18:19:25Z</time>
      </trkpt>
      <trkpt lat="43.53331" lon="1.398">
        <ele>154.2612</ele>
        <time>2021-07-22T18:19:36Z</time>
      </trkpt>
      <trkpt lat="43.533" lon="1.39864">
        <ele>155.3227</ele>
        <time>2021-07-22T18:19:47Z</time>
      </trkpt>
      <trkpt lat="43.53382" lon="1.39719">
        <ele>160.7764</ele>
        <time>2021-07-22T18:19:58Z</time>
      </trkpt>
      <trkpt lat="43.53449" lon="1.39585">
        <ele>159.5656</ele>
        <time>2021-07-22T18:20:09Z</time>
      </trkpt>
      <trkpt lat="43.53493" lon="1.3949">
        <ele>161.471</ele>
        <time>2021-07-22T18:20:20Z</time>
      </trkpt>
      <trkpt lat="43.5358" lon="1.39306">
        <ele>161.9868</ele>
        <time>2021-07-22T18:20:31Z</time>
      </trkpt>
      <trkpt lat="43.53698" lon="1.39065">
        <ele>160.9178</ele>
        <time>2021-07-22T18:20:42Z</time>
      </trkpt>
      <trkpt lat="43.53787" lon="1.38878">
        <ele>154.5807</ele>
        <time>2021-07-22T18:20:53Z</time>
      </trkpt>
      <trkpt lat="43.53937" lon="1.38914">
        <ele>153.5979</ele>
        <time>2021-07-22T18:21:04Z</time>
      </trkpt>
      <trkpt lat="43.54103" lon="1.39032">
        <ele>155.9716</ele>
        <time>2021-07-22T18:21:15Z</time>
      </trkpt>
      <trkpt lat="43.54221" lon="1.38976">
        <ele>157.773</ele>
        <time>2021-07-22T18:21:26Z</time>
      </trkpt>
      <trkpt lat="43.54362" lon="1.389">
        <ele>162.3685</ele>
        <time>2021-07-22T18:21:37Z</time>
      </trkpt>
      <trkpt lat="43.54446" lon="1.38803">
        <ele>165.6257</ele>
        <time>2021-07-22T18:21:48Z</time>
      </trkpt>
      <trkpt lat="43.54531" lon="1.3872">
        <ele>166.6773</ele>
        <time>2021-07-22T18:21:59Z</time>
      </trkpt>
      <trkpt lat="43.54571" lon="1.38662">
        <ele>166.1774</ele>
        <time>2021-07-22T18:22:10Z</time>
      </trkpt>
      <trkpt lat="43.54449" lon="1.38414">
        <ele>166.4533</ele>
        <time>2021-07-22T18:22:21Z</time>
      </trkpt>
      <trkpt lat="43.54238" lon="1.38191">
        <ele>163.3458</ele>
        <time>2021-07-22T18:22:32Z</time>
      </trkpt>
      <trkpt lat="43.54129" lon="1.37943">
        <ele>157.8026</ele>
        <time>2021-07-22T18:22:43Z</time>
      </trkpt>
      <trkpt lat="43.54052" lon="1.3774">
        <ele>159.2689</ele>
        <time>2021-07-22T18:22:54Z</time>
      </trkpt>
      <trkpt lat="43.53995" lon="1.37545">
        <ele>165.2148</ele>
        <time>2021-07-22T18:23:05Z</time>
      </trkpt>
      <trkpt lat="43.53993" lon="1.37337">
        <ele>165.7165</ele>
        <time>2021-07-22T18:23:16Z</time>
      </trkpt>
      <trkpt lat="43.53876" lon="1.37077">
        <ele>166.9985</ele>
        <time>2021-07-22T18:23:27Z</time>
      </trkpt>
      <trkpt lat="43.53722" lon="1.36791">
        <ele>167.0174</ele>
        <time>2021-07-22T18:23:38Z</time>
      </trkpt>
      <trkpt lat="43.53642" lon="1.36562">
        <ele>165.6799</ele>
        <time>2021-07-22T18:23:49Z</time>
      </trkpt>
      <trkpt lat="43.53655" lon="1.36345">
        <ele>169.509</ele>
        <time>2021-07-22T18:24:00Z</time>
      </trkpt>
      <trkpt lat="43.53678" lon="1.36081">
        <ele>169.6857</ele>
        <time>2021-07-22T18:24:11Z</time>
      </trkpt>
      <trkpt lat="43.53752" lon="1.3583">
        <ele>169.4302</ele>
        <time>2021-07-22T18:24:22Z</time>
      </trkpt>
      <trkpt lat="43.5393" lon="1.35687">
        <ele>170.8054</ele>
        <time>2021-07-22T18:24:33Z</time>
      </trkpt>
      <trkpt lat="43.54106" lon="1.35552">
        <ele>170.0015</ele>
        <time>2021-07-22T18:24:44Z</time>
      </trkpt>
      <trkpt lat="43.54263" lon="1.35384">
        <ele>169.7423</ele>
        <time>2021-07-22T18:24:55Z</time>
      </trkpt>
      <trkpt lat="43.544" lon="1.35218">
        <ele>167.1431</ele>
        <time>2021-07-22T18:25:06Z</time>
      </trkpt>
      <trkpt lat="43.54502" lon="1.35102">
        <ele>167.1468</ele>
        <time>2021-07-22T18:25:17Z</time>
      </trkpt>
      <trkpt lat="43.5453" lon="1.35012">
        <ele>167.1818</ele>
        <time>2021-07-22T18:25:28Z</time>
      </trkpt>
      <trkpt lat="43.54503" lon="1.34819">
        <ele>170.7776</ele>
        <time>2021-07-22T18:25:39Z</time>
      </trkpt>
      <trkpt lat="43.54462" lon="1.34668">
        <ele>161.8741</ele>
        <time>2021-07-22T18:25:50Z</time>
      </trkpt>
      <trkpt lat="43.54449" lon="1.34593">
        <ele>165.2638</ele>
        <time>2021-07-22T18:26:01Z</time>
      </trkpt>
      <trkpt lat="43.54527" lon="1.34487">
        <ele>163.4529</ele>
        <time>2021-07-22T18:26:12Z</time>
      </trkpt>
      <trkpt lat="43.54596" lon="1.34354">
        <ele>164.4075</ele>
        <time>2021-07-22T18:26:23Z</time>
      </trkpt>
      <trkpt lat="43.54662" lon="1.34241">
        <ele>165.3388</ele>
        <time>2021-07-22T18:26:34Z</time>
      </trkpt>
      <trkpt lat="43.54722" lon="1.34145">
        <ele>166.9877</ele>
        <time>2021-07-22T18:26:45Z</time>
      </trkpt>
      <trkpt lat="43.54781" lon="1.3401">
        <ele>166.1431</ele>
        <time>2021-07-22T18:26:56Z</time>
      </trkpt>
      <trkpt lat="43.54841" lon="1.33856">
        <ele>170.444</ele>
        <time>2021-07-22T18:27:07Z</time>
      </trkpt>
      <trkpt lat="43.54864" lon="1.33747">
        <ele>169.8043</ele>
        <time>2021-07-22T18:27:18Z</time>
      </trkpt>
      <trkpt lat="43.54899" lon="1.33693">
        <ele>169.9627</ele>
        <time>2021-07-22T18:27:29Z</time>
      </trkpt>
      <trkpt lat="43.55042" lon="1.33628">
        <ele>175.6728</ele>
        <time>2021-07-22T18:27:40Z</time>
      </trkpt>
      <trkpt lat="43.55215" lon="1.33537">
        <ele>173.4207</ele>
        <time>2021-07-22T18:27:51Z</time>
      </trkpt>
      <trkpt lat="43.5524" lon="1.33528">
        <ele>171.8214</ele>
        <time>2021-07-22T18:28:02Z</time>
      </trkpt>
      <trkpt lat="43.55244" lon="1.33543">
        <ele>172.3654</ele>
        <time>2021-07-22T18:28:26Z</time>
      </trkpt>
      <trkpt lat="43.5528" lon="1.33624">
        <ele>171.2538</ele>
        <time>2021-07-22T18:28:37Z</time>
      </trkpt>
      <trkpt lat="43.55329" lon="1.33616">
        <ele>169.9606</ele>
        <time>2021-07-22T18:28:48Z</time>
      </trkpt>
      <trkpt lat="43.55324" lon="1.33594">
        <ele>171.7338</ele>
        <time>2021-07-22T18:28:59Z</time>
      </trkpt>
      <trkpt lat="43.55323" lon="1.33595">
        <ele>169.0979</ele>
        <time>2021-07-22T18:29:58Z</time>
      </trkpt>
    </trkseg>
  </trk>
</gpx>